<?xml version="1.0" encoding="UTF-8" standalone="no" ?>
<gpx xmlns="http://www.topografix.com/GPX/1/1" xmlns:xsi="http://www.w3.org/2001/XMLSchema-instance" xsi:schemaLocation="http://www.topografix.com/GPX/1/1 http://www.topografix.com/GPX/1/1/gpx.xsd" version="1.1" creator="VisuGPX - https://www.visugpx.com">
  <metadata>
    <name>Randonnée du 10/10/24 Le petit Donon</name>
  </metadata>
  <trk>
    <name><![CDATA[Parcours du 10/10/2024 16h47]]></name>
    <trkseg>
      <trkpt lat="48.51587" lon="7.17032">
        <ele>821.6548</ele>
        <time>2024-10-10T12:29:12Z</time>
      </trkpt>
      <trkpt lat="48.51587" lon="7.17032">
        <ele>821.6548</ele>
        <time>2024-10-10T12:29:13Z</time>
      </trkpt>
      <trkpt lat="48.51584" lon="7.17037">
        <ele>821.6548</ele>
        <time>2024-10-10T12:30:01Z</time>
      </trkpt>
      <trkpt lat="48.51586" lon="7.17044">
        <ele>821.6548</ele>
        <time>2024-10-10T12:30:06Z</time>
      </trkpt>
      <trkpt lat="48.51586" lon="7.17052">
        <ele>821.6548</ele>
        <time>2024-10-10T12:30:12Z</time>
      </trkpt>
      <trkpt lat="48.51588" lon="7.17058">
        <ele>821.6548</ele>
        <time>2024-10-10T12:30:16Z</time>
      </trkpt>
      <trkpt lat="48.51588" lon="7.17065">
        <ele>821.6548</ele>
        <time>2024-10-10T12:30:22Z</time>
      </trkpt>
      <trkpt lat="48.51587" lon="7.17072">
        <ele>821.6548</ele>
        <time>2024-10-10T12:30:26Z</time>
      </trkpt>
      <trkpt lat="48.51586" lon="7.17079">
        <ele>821.6548</ele>
        <time>2024-10-10T12:30:30Z</time>
      </trkpt>
      <trkpt lat="48.51585" lon="7.17086">
        <ele>821.6548</ele>
        <time>2024-10-10T12:30:36Z</time>
      </trkpt>
      <trkpt lat="48.51582" lon="7.17098">
        <ele>821.6548</ele>
        <time>2024-10-10T12:30:44Z</time>
      </trkpt>
      <trkpt lat="48.51579" lon="7.17103">
        <ele>821.6548</ele>
        <time>2024-10-10T12:30:49Z</time>
      </trkpt>
      <trkpt lat="48.51581" lon="7.1711">
        <ele>821.6548</ele>
        <time>2024-10-10T12:30:55Z</time>
      </trkpt>
      <trkpt lat="48.5158" lon="7.17117">
        <ele>821.6548</ele>
        <time>2024-10-10T12:31:04Z</time>
      </trkpt>
      <trkpt lat="48.51578" lon="7.17123">
        <ele>821.6548</ele>
        <time>2024-10-10T12:31:12Z</time>
      </trkpt>
      <trkpt lat="48.51576" lon="7.1713">
        <ele>821.6548</ele>
        <time>2024-10-10T12:31:16Z</time>
      </trkpt>
      <trkpt lat="48.51576" lon="7.17138">
        <ele>821.6548</ele>
        <time>2024-10-10T12:31:21Z</time>
      </trkpt>
      <trkpt lat="48.51575" lon="7.17145">
        <ele>821.6548</ele>
        <time>2024-10-10T12:31:25Z</time>
      </trkpt>
      <trkpt lat="48.51574" lon="7.17152">
        <ele>821.6548</ele>
        <time>2024-10-10T12:31:29Z</time>
      </trkpt>
      <trkpt lat="48.51574" lon="7.17161">
        <ele>821.6548</ele>
        <time>2024-10-10T12:31:34Z</time>
      </trkpt>
      <trkpt lat="48.51573" lon="7.17168">
        <ele>821.6548</ele>
        <time>2024-10-10T12:31:39Z</time>
      </trkpt>
      <trkpt lat="48.51576" lon="7.17174">
        <ele>821.6548</ele>
        <time>2024-10-10T12:31:44Z</time>
      </trkpt>
      <trkpt lat="48.51576" lon="7.17182">
        <ele>821.6548</ele>
        <time>2024-10-10T12:31:50Z</time>
      </trkpt>
      <trkpt lat="48.51576" lon="7.1719">
        <ele>821.6548</ele>
        <time>2024-10-10T12:31:54Z</time>
      </trkpt>
      <trkpt lat="48.51574" lon="7.17196">
        <ele>821.6548</ele>
        <time>2024-10-10T12:31:58Z</time>
      </trkpt>
      <trkpt lat="48.51572" lon="7.17203">
        <ele>821.6548</ele>
        <time>2024-10-10T12:32:02Z</time>
      </trkpt>
      <trkpt lat="48.51571" lon="7.17211">
        <ele>821.6548</ele>
        <time>2024-10-10T12:32:07Z</time>
      </trkpt>
      <trkpt lat="48.51568" lon="7.17217">
        <ele>821.6548</ele>
        <time>2024-10-10T12:32:11Z</time>
      </trkpt>
      <trkpt lat="48.51563" lon="7.17221">
        <ele>821.6548</ele>
        <time>2024-10-10T12:32:16Z</time>
      </trkpt>
      <trkpt lat="48.51561" lon="7.17227">
        <ele>821.6548</ele>
        <time>2024-10-10T12:32:22Z</time>
      </trkpt>
      <trkpt lat="48.51559" lon="7.17233">
        <ele>821.6548</ele>
        <time>2024-10-10T12:32:27Z</time>
      </trkpt>
      <trkpt lat="48.51556" lon="7.17239">
        <ele>821.6548</ele>
        <time>2024-10-10T12:32:31Z</time>
      </trkpt>
      <trkpt lat="48.51552" lon="7.17243">
        <ele>821.6548</ele>
        <time>2024-10-10T12:32:36Z</time>
      </trkpt>
      <trkpt lat="48.5155" lon="7.17249">
        <ele>821.6548</ele>
        <time>2024-10-10T12:32:40Z</time>
      </trkpt>
      <trkpt lat="48.51547" lon="7.17255">
        <ele>821.6548</ele>
        <time>2024-10-10T12:32:44Z</time>
      </trkpt>
      <trkpt lat="48.51546" lon="7.17263">
        <ele>821.6548</ele>
        <time>2024-10-10T12:32:50Z</time>
      </trkpt>
      <trkpt lat="48.51542" lon="7.17268">
        <ele>821.6548</ele>
        <time>2024-10-10T12:32:55Z</time>
      </trkpt>
      <trkpt lat="48.51539" lon="7.17274">
        <ele>821.6548</ele>
        <time>2024-10-10T12:33:00Z</time>
      </trkpt>
      <trkpt lat="48.51534" lon="7.17275">
        <ele>821.6548</ele>
        <time>2024-10-10T12:33:03Z</time>
      </trkpt>
      <trkpt lat="48.51527" lon="7.17276">
        <ele>821.6548</ele>
        <time>2024-10-10T12:33:08Z</time>
      </trkpt>
      <trkpt lat="48.51525" lon="7.17284">
        <ele>821.6548</ele>
        <time>2024-10-10T12:33:12Z</time>
      </trkpt>
      <trkpt lat="48.51524" lon="7.17291">
        <ele>821.6548</ele>
        <time>2024-10-10T12:33:36Z</time>
      </trkpt>
      <trkpt lat="48.5152" lon="7.17296">
        <ele>821.6548</ele>
        <time>2024-10-10T12:33:40Z</time>
      </trkpt>
      <trkpt lat="48.51516" lon="7.17299">
        <ele>821.6548</ele>
        <time>2024-10-10T12:33:42Z</time>
      </trkpt>
      <trkpt lat="48.51512" lon="7.17303">
        <ele>821.6548</ele>
        <time>2024-10-10T12:33:49Z</time>
      </trkpt>
      <trkpt lat="48.51515" lon="7.17297">
        <ele>831.78937</ele>
        <time>2024-10-10T12:34:02Z</time>
      </trkpt>
      <trkpt lat="48.51519" lon="7.17299">
        <ele>831.78937</ele>
        <time>2024-10-10T12:34:05Z</time>
      </trkpt>
      <trkpt lat="48.51524" lon="7.17294">
        <ele>831.78937</ele>
        <time>2024-10-10T12:34:09Z</time>
      </trkpt>
      <trkpt lat="48.51527" lon="7.17289">
        <ele>831.78937</ele>
        <time>2024-10-10T12:34:21Z</time>
      </trkpt>
      <trkpt lat="48.51531" lon="7.17286">
        <ele>831.78937</ele>
        <time>2024-10-10T12:34:27Z</time>
      </trkpt>
      <trkpt lat="48.51536" lon="7.17289">
        <ele>831.78937</ele>
        <time>2024-10-10T12:34:37Z</time>
      </trkpt>
      <trkpt lat="48.51541" lon="7.17293">
        <ele>831.78937</ele>
        <time>2024-10-10T12:34:41Z</time>
      </trkpt>
      <trkpt lat="48.51545" lon="7.17294">
        <ele>831.78937</ele>
        <time>2024-10-10T12:35:30Z</time>
      </trkpt>
      <trkpt lat="48.5155" lon="7.17293">
        <ele>831.78937</ele>
        <time>2024-10-10T12:35:35Z</time>
      </trkpt>
      <trkpt lat="48.51555" lon="7.17293">
        <ele>831.78937</ele>
        <time>2024-10-10T12:35:39Z</time>
      </trkpt>
      <trkpt lat="48.51559" lon="7.17289">
        <ele>842.0871</ele>
        <time>2024-10-10T12:35:46Z</time>
      </trkpt>
      <trkpt lat="48.51565" lon="7.1729">
        <ele>842.0871</ele>
        <time>2024-10-10T12:36:07Z</time>
      </trkpt>
      <trkpt lat="48.5157" lon="7.17289">
        <ele>842.0871</ele>
        <time>2024-10-10T12:36:10Z</time>
      </trkpt>
      <trkpt lat="48.51576" lon="7.17287">
        <ele>842.0871</ele>
        <time>2024-10-10T12:36:18Z</time>
      </trkpt>
      <trkpt lat="48.51577" lon="7.1728">
        <ele>842.0871</ele>
        <time>2024-10-10T12:36:23Z</time>
      </trkpt>
      <trkpt lat="48.5158" lon="7.17276">
        <ele>842.0871</ele>
        <time>2024-10-10T12:36:29Z</time>
      </trkpt>
      <trkpt lat="48.51585" lon="7.17273">
        <ele>842.0871</ele>
        <time>2024-10-10T12:36:41Z</time>
      </trkpt>
      <trkpt lat="48.51589" lon="7.1727">
        <ele>842.0871</ele>
        <time>2024-10-10T12:36:44Z</time>
      </trkpt>
      <trkpt lat="48.51594" lon="7.17266">
        <ele>842.0871</ele>
        <time>2024-10-10T12:36:58Z</time>
      </trkpt>
      <trkpt lat="48.51597" lon="7.17262">
        <ele>842.0871</ele>
        <time>2024-10-10T12:37:07Z</time>
      </trkpt>
      <trkpt lat="48.51604" lon="7.17259">
        <ele>842.0871</ele>
        <time>2024-10-10T12:37:11Z</time>
      </trkpt>
      <trkpt lat="48.51608" lon="7.17257">
        <ele>842.0871</ele>
        <time>2024-10-10T12:37:14Z</time>
      </trkpt>
      <trkpt lat="48.51613" lon="7.17255">
        <ele>842.0871</ele>
        <time>2024-10-10T12:37:16Z</time>
      </trkpt>
      <trkpt lat="48.51618" lon="7.17253">
        <ele>842.0871</ele>
        <time>2024-10-10T12:37:18Z</time>
      </trkpt>
      <trkpt lat="48.51622" lon="7.17252">
        <ele>842.0871</ele>
        <time>2024-10-10T12:37:25Z</time>
      </trkpt>
      <trkpt lat="48.51627" lon="7.17252">
        <ele>842.0871</ele>
        <time>2024-10-10T12:37:41Z</time>
      </trkpt>
      <trkpt lat="48.51632" lon="7.17253">
        <ele>842.0871</ele>
        <time>2024-10-10T12:37:44Z</time>
      </trkpt>
      <trkpt lat="48.51637" lon="7.17255">
        <ele>853.5113</ele>
        <time>2024-10-10T12:38:01Z</time>
      </trkpt>
      <trkpt lat="48.51642" lon="7.17255">
        <ele>853.5113</ele>
        <time>2024-10-10T12:38:20Z</time>
      </trkpt>
      <trkpt lat="48.51649" lon="7.17259">
        <ele>853.5113</ele>
        <time>2024-10-10T12:38:28Z</time>
      </trkpt>
      <trkpt lat="48.51654" lon="7.17262">
        <ele>853.5113</ele>
        <time>2024-10-10T12:38:33Z</time>
      </trkpt>
      <trkpt lat="48.5166" lon="7.17266">
        <ele>853.5113</ele>
        <time>2024-10-10T12:38:39Z</time>
      </trkpt>
      <trkpt lat="48.51665" lon="7.17269">
        <ele>853.5113</ele>
        <time>2024-10-10T12:38:43Z</time>
      </trkpt>
      <trkpt lat="48.51671" lon="7.17272">
        <ele>853.5113</ele>
        <time>2024-10-10T12:38:46Z</time>
      </trkpt>
      <trkpt lat="48.51676" lon="7.17275">
        <ele>853.5113</ele>
        <time>2024-10-10T12:38:52Z</time>
      </trkpt>
      <trkpt lat="48.5168" lon="7.17279">
        <ele>853.5113</ele>
        <time>2024-10-10T12:39:00Z</time>
      </trkpt>
      <trkpt lat="48.51685" lon="7.1728">
        <ele>853.5113</ele>
        <time>2024-10-10T12:39:27Z</time>
      </trkpt>
      <trkpt lat="48.51689" lon="7.17283">
        <ele>853.5113</ele>
        <time>2024-10-10T12:39:33Z</time>
      </trkpt>
      <trkpt lat="48.51695" lon="7.17287">
        <ele>863.93256</ele>
        <time>2024-10-10T12:39:36Z</time>
      </trkpt>
      <trkpt lat="48.51699" lon="7.1729">
        <ele>863.93256</ele>
        <time>2024-10-10T12:39:47Z</time>
      </trkpt>
      <trkpt lat="48.51704" lon="7.17293">
        <ele>863.93256</ele>
        <time>2024-10-10T12:39:52Z</time>
      </trkpt>
      <trkpt lat="48.51709" lon="7.17296">
        <ele>863.93256</ele>
        <time>2024-10-10T12:40:05Z</time>
      </trkpt>
      <trkpt lat="48.51714" lon="7.17298">
        <ele>863.93256</ele>
        <time>2024-10-10T12:40:11Z</time>
      </trkpt>
      <trkpt lat="48.51718" lon="7.17302">
        <ele>863.93256</ele>
        <time>2024-10-10T12:40:23Z</time>
      </trkpt>
      <trkpt lat="48.51723" lon="7.17305">
        <ele>863.93256</ele>
        <time>2024-10-10T12:40:25Z</time>
      </trkpt>
      <trkpt lat="48.51727" lon="7.17308">
        <ele>863.93256</ele>
        <time>2024-10-10T12:40:31Z</time>
      </trkpt>
      <trkpt lat="48.51731" lon="7.17313">
        <ele>863.93256</ele>
        <time>2024-10-10T12:40:41Z</time>
      </trkpt>
      <trkpt lat="48.51737" lon="7.17318">
        <ele>863.93256</ele>
        <time>2024-10-10T12:40:46Z</time>
      </trkpt>
      <trkpt lat="48.51741" lon="7.17323">
        <ele>863.93256</ele>
        <time>2024-10-10T12:40:55Z</time>
      </trkpt>
      <trkpt lat="48.51745" lon="7.17327">
        <ele>863.93256</ele>
        <time>2024-10-10T12:41:01Z</time>
      </trkpt>
      <trkpt lat="48.5175" lon="7.17334">
        <ele>875.14813</ele>
        <time>2024-10-10T12:41:15Z</time>
      </trkpt>
      <trkpt lat="48.51757" lon="7.17332">
        <ele>875.14813</ele>
        <time>2024-10-10T12:41:22Z</time>
      </trkpt>
      <trkpt lat="48.51761" lon="7.17331">
        <ele>875.14813</ele>
        <time>2024-10-10T12:41:28Z</time>
      </trkpt>
      <trkpt lat="48.51758" lon="7.17338">
        <ele>875.14813</ele>
        <time>2024-10-10T12:41:31Z</time>
      </trkpt>
      <trkpt lat="48.51749" lon="7.17345">
        <ele>875.14813</ele>
        <time>2024-10-10T12:41:33Z</time>
      </trkpt>
      <trkpt lat="48.51754" lon="7.17352">
        <ele>875.14813</ele>
        <time>2024-10-10T12:41:34Z</time>
      </trkpt>
      <trkpt lat="48.51748" lon="7.17356">
        <ele>875.14813</ele>
        <time>2024-10-10T12:41:35Z</time>
      </trkpt>
      <trkpt lat="48.51751" lon="7.1735">
        <ele>875.14813</ele>
        <time>2024-10-10T12:41:36Z</time>
      </trkpt>
      <trkpt lat="48.51756" lon="7.17353">
        <ele>875.14813</ele>
        <time>2024-10-10T12:41:38Z</time>
      </trkpt>
      <trkpt lat="48.51762" lon="7.1735">
        <ele>875.14813</ele>
        <time>2024-10-10T12:41:42Z</time>
      </trkpt>
      <trkpt lat="48.51764" lon="7.17357">
        <ele>875.14813</ele>
        <time>2024-10-10T12:41:46Z</time>
      </trkpt>
      <trkpt lat="48.51771" lon="7.17362">
        <ele>875.14813</ele>
        <time>2024-10-10T12:41:51Z</time>
      </trkpt>
      <trkpt lat="48.51765" lon="7.1737">
        <ele>875.14813</ele>
        <time>2024-10-10T12:41:53Z</time>
      </trkpt>
      <trkpt lat="48.5176" lon="7.17375">
        <ele>875.14813</ele>
        <time>2024-10-10T12:41:56Z</time>
      </trkpt>
      <trkpt lat="48.51767" lon="7.17371">
        <ele>875.14813</ele>
        <time>2024-10-10T12:41:57Z</time>
      </trkpt>
      <trkpt lat="48.51775" lon="7.17377">
        <ele>885.7212</ele>
        <time>2024-10-10T12:42:06Z</time>
      </trkpt>
      <trkpt lat="48.51774" lon="7.17369">
        <ele>885.7212</ele>
        <time>2024-10-10T12:42:11Z</time>
      </trkpt>
      <trkpt lat="48.51779" lon="7.17367">
        <ele>885.7212</ele>
        <time>2024-10-10T12:42:13Z</time>
      </trkpt>
      <trkpt lat="48.51786" lon="7.1737">
        <ele>885.7212</ele>
        <time>2024-10-10T12:42:15Z</time>
      </trkpt>
      <trkpt lat="48.51794" lon="7.17373">
        <ele>885.7212</ele>
        <time>2024-10-10T12:42:26Z</time>
      </trkpt>
      <trkpt lat="48.51789" lon="7.1737">
        <ele>885.7212</ele>
        <time>2024-10-10T12:42:28Z</time>
      </trkpt>
      <trkpt lat="48.51793" lon="7.17373">
        <ele>885.7212</ele>
        <time>2024-10-10T12:42:39Z</time>
      </trkpt>
      <trkpt lat="48.51798" lon="7.17376">
        <ele>885.7212</ele>
        <time>2024-10-10T12:42:47Z</time>
      </trkpt>
      <trkpt lat="48.51802" lon="7.17379">
        <ele>885.7212</ele>
        <time>2024-10-10T12:42:55Z</time>
      </trkpt>
      <trkpt lat="48.51807" lon="7.1738">
        <ele>885.7212</ele>
        <time>2024-10-10T12:43:01Z</time>
      </trkpt>
      <trkpt lat="48.51812" lon="7.17382">
        <ele>885.7212</ele>
        <time>2024-10-10T12:43:08Z</time>
      </trkpt>
      <trkpt lat="48.51818" lon="7.17385">
        <ele>885.7212</ele>
        <time>2024-10-10T12:43:15Z</time>
      </trkpt>
      <trkpt lat="48.51824" lon="7.1739">
        <ele>885.7212</ele>
        <time>2024-10-10T12:43:25Z</time>
      </trkpt>
      <trkpt lat="48.51832" lon="7.17395">
        <ele>885.7212</ele>
        <time>2024-10-10T12:43:30Z</time>
      </trkpt>
      <trkpt lat="48.51836" lon="7.17399">
        <ele>885.7212</ele>
        <time>2024-10-10T12:43:33Z</time>
      </trkpt>
      <trkpt lat="48.51841" lon="7.17403">
        <ele>885.7212</ele>
        <time>2024-10-10T12:43:42Z</time>
      </trkpt>
      <trkpt lat="48.51846" lon="7.17406">
        <ele>896.88214</ele>
        <time>2024-10-10T12:43:49Z</time>
      </trkpt>
      <trkpt lat="48.51851" lon="7.1741">
        <ele>896.88214</ele>
        <time>2024-10-10T12:44:00Z</time>
      </trkpt>
      <trkpt lat="48.51856" lon="7.17412">
        <ele>896.88214</ele>
        <time>2024-10-10T12:44:09Z</time>
      </trkpt>
      <trkpt lat="48.51865" lon="7.17411">
        <ele>896.88214</ele>
        <time>2024-10-10T12:44:11Z</time>
      </trkpt>
      <trkpt lat="48.51859" lon="7.17412">
        <ele>896.88214</ele>
        <time>2024-10-10T12:44:16Z</time>
      </trkpt>
      <trkpt lat="48.51856" lon="7.17422">
        <ele>896.88214</ele>
        <time>2024-10-10T12:44:49Z</time>
      </trkpt>
      <trkpt lat="48.51851" lon="7.17422">
        <ele>896.88214</ele>
        <time>2024-10-10T12:46:21Z</time>
      </trkpt>
      <trkpt lat="48.51853" lon="7.17428">
        <ele>896.88214</ele>
        <time>2024-10-10T12:46:24Z</time>
      </trkpt>
      <trkpt lat="48.51848" lon="7.17431">
        <ele>896.88214</ele>
        <time>2024-10-10T12:46:35Z</time>
      </trkpt>
      <trkpt lat="48.51844" lon="7.17436">
        <ele>896.88214</ele>
        <time>2024-10-10T12:46:40Z</time>
      </trkpt>
      <trkpt lat="48.51839" lon="7.17442">
        <ele>896.88214</ele>
        <time>2024-10-10T12:46:44Z</time>
      </trkpt>
      <trkpt lat="48.51838" lon="7.17448">
        <ele>896.88214</ele>
        <time>2024-10-10T12:46:49Z</time>
      </trkpt>
      <trkpt lat="48.51834" lon="7.17451">
        <ele>896.88214</ele>
        <time>2024-10-10T12:46:57Z</time>
      </trkpt>
      <trkpt lat="48.51831" lon="7.17457">
        <ele>896.88214</ele>
        <time>2024-10-10T12:47:00Z</time>
      </trkpt>
      <trkpt lat="48.51828" lon="7.17462">
        <ele>896.88214</ele>
        <time>2024-10-10T12:47:06Z</time>
      </trkpt>
      <trkpt lat="48.51824" lon="7.17469">
        <ele>908.09326</ele>
        <time>2024-10-10T12:47:15Z</time>
      </trkpt>
      <trkpt lat="48.51821" lon="7.17474">
        <ele>908.09326</ele>
        <time>2024-10-10T12:47:21Z</time>
      </trkpt>
      <trkpt lat="48.5182" lon="7.17481">
        <ele>908.09326</ele>
        <time>2024-10-10T12:47:27Z</time>
      </trkpt>
      <trkpt lat="48.51816" lon="7.17485">
        <ele>908.09326</ele>
        <time>2024-10-10T12:47:38Z</time>
      </trkpt>
      <trkpt lat="48.51811" lon="7.17488">
        <ele>908.09326</ele>
        <time>2024-10-10T12:47:44Z</time>
      </trkpt>
      <trkpt lat="48.51806" lon="7.1749">
        <ele>908.09326</ele>
        <time>2024-10-10T12:47:51Z</time>
      </trkpt>
      <trkpt lat="48.51801" lon="7.17493">
        <ele>908.09326</ele>
        <time>2024-10-10T12:47:59Z</time>
      </trkpt>
      <trkpt lat="48.51797" lon="7.17498">
        <ele>908.09326</ele>
        <time>2024-10-10T12:48:12Z</time>
      </trkpt>
      <trkpt lat="48.51795" lon="7.17507">
        <ele>908.09326</ele>
        <time>2024-10-10T12:48:19Z</time>
      </trkpt>
      <trkpt lat="48.51791" lon="7.1751">
        <ele>908.09326</ele>
        <time>2024-10-10T12:48:28Z</time>
      </trkpt>
      <trkpt lat="48.51786" lon="7.17511">
        <ele>908.09326</ele>
        <time>2024-10-10T12:48:40Z</time>
      </trkpt>
      <trkpt lat="48.51781" lon="7.17512">
        <ele>908.09326</ele>
        <time>2024-10-10T12:48:52Z</time>
      </trkpt>
      <trkpt lat="48.51777" lon="7.17514">
        <ele>908.09326</ele>
        <time>2024-10-10T12:48:59Z</time>
      </trkpt>
      <trkpt lat="48.51772" lon="7.17516">
        <ele>908.09326</ele>
        <time>2024-10-10T12:49:50Z</time>
      </trkpt>
      <trkpt lat="48.51767" lon="7.17517">
        <ele>908.09326</ele>
        <time>2024-10-10T12:49:56Z</time>
      </trkpt>
      <trkpt lat="48.51762" lon="7.17521">
        <ele>908.09326</ele>
        <time>2024-10-10T12:50:00Z</time>
      </trkpt>
      <trkpt lat="48.51758" lon="7.17521">
        <ele>918.4738</ele>
        <time>2024-10-10T12:50:06Z</time>
      </trkpt>
      <trkpt lat="48.51753" lon="7.1752">
        <ele>918.4738</ele>
        <time>2024-10-10T12:51:14Z</time>
      </trkpt>
      <trkpt lat="48.51748" lon="7.17521">
        <ele>918.4738</ele>
        <time>2024-10-10T12:51:22Z</time>
      </trkpt>
      <trkpt lat="48.51744" lon="7.17522">
        <ele>918.4738</ele>
        <time>2024-10-10T12:51:30Z</time>
      </trkpt>
      <trkpt lat="48.51738" lon="7.17522">
        <ele>918.4738</ele>
        <time>2024-10-10T12:51:40Z</time>
      </trkpt>
      <trkpt lat="48.51734" lon="7.17522">
        <ele>918.4738</ele>
        <time>2024-10-10T12:51:48Z</time>
      </trkpt>
      <trkpt lat="48.51729" lon="7.17521">
        <ele>928.6045</ele>
        <time>2024-10-10T12:52:00Z</time>
      </trkpt>
      <trkpt lat="48.51724" lon="7.1752">
        <ele>928.6045</ele>
        <time>2024-10-10T12:52:08Z</time>
      </trkpt>
      <trkpt lat="48.5172" lon="7.17519">
        <ele>928.6045</ele>
        <time>2024-10-10T12:52:16Z</time>
      </trkpt>
      <trkpt lat="48.51715" lon="7.17519">
        <ele>928.6045</ele>
        <time>2024-10-10T12:52:26Z</time>
      </trkpt>
      <trkpt lat="48.5171" lon="7.17519">
        <ele>928.6045</ele>
        <time>2024-10-10T12:52:40Z</time>
      </trkpt>
      <trkpt lat="48.51705" lon="7.17518">
        <ele>928.6045</ele>
        <time>2024-10-10T12:52:56Z</time>
      </trkpt>
      <trkpt lat="48.517" lon="7.17518">
        <ele>928.6045</ele>
        <time>2024-10-10T12:53:34Z</time>
      </trkpt>
      <trkpt lat="48.51695" lon="7.17518">
        <ele>928.6045</ele>
        <time>2024-10-10T12:53:40Z</time>
      </trkpt>
      <trkpt lat="48.5169" lon="7.17519">
        <ele>928.6045</ele>
        <time>2024-10-10T12:53:48Z</time>
      </trkpt>
      <trkpt lat="48.51686" lon="7.17518">
        <ele>928.6045</ele>
        <time>2024-10-10T12:54:06Z</time>
      </trkpt>
      <trkpt lat="48.51683" lon="7.17525">
        <ele>928.6045</ele>
        <time>2024-10-10T12:54:32Z</time>
      </trkpt>
      <trkpt lat="48.51679" lon="7.17523">
        <ele>928.6045</ele>
        <time>2024-10-10T12:54:45Z</time>
      </trkpt>
      <trkpt lat="48.51674" lon="7.17521">
        <ele>928.6045</ele>
        <time>2024-10-10T12:54:50Z</time>
      </trkpt>
      <trkpt lat="48.51669" lon="7.1752">
        <ele>939.2765</ele>
        <time>2024-10-10T12:54:56Z</time>
      </trkpt>
      <trkpt lat="48.51664" lon="7.1752">
        <ele>939.2765</ele>
        <time>2024-10-10T12:55:03Z</time>
      </trkpt>
      <trkpt lat="48.51659" lon="7.1752">
        <ele>939.2765</ele>
        <time>2024-10-10T12:55:13Z</time>
      </trkpt>
      <trkpt lat="48.51655" lon="7.17524">
        <ele>939.2765</ele>
        <time>2024-10-10T12:55:23Z</time>
      </trkpt>
      <trkpt lat="48.5165" lon="7.17527">
        <ele>939.2765</ele>
        <time>2024-10-10T12:55:32Z</time>
      </trkpt>
      <trkpt lat="48.51646" lon="7.17529">
        <ele>939.2765</ele>
        <time>2024-10-10T12:55:38Z</time>
      </trkpt>
      <trkpt lat="48.51642" lon="7.17532">
        <ele>939.2765</ele>
        <time>2024-10-10T12:55:45Z</time>
      </trkpt>
      <trkpt lat="48.51637" lon="7.17534">
        <ele>939.2765</ele>
        <time>2024-10-10T12:55:50Z</time>
      </trkpt>
      <trkpt lat="48.51633" lon="7.17536">
        <ele>939.2765</ele>
        <time>2024-10-10T12:55:57Z</time>
      </trkpt>
      <trkpt lat="48.51629" lon="7.17539">
        <ele>939.2765</ele>
        <time>2024-10-10T12:56:06Z</time>
      </trkpt>
      <trkpt lat="48.51624" lon="7.17542">
        <ele>949.5503</ele>
        <time>2024-10-10T12:56:12Z</time>
      </trkpt>
      <trkpt lat="48.51621" lon="7.17546">
        <ele>949.5503</ele>
        <time>2024-10-10T12:56:20Z</time>
      </trkpt>
      <trkpt lat="48.51617" lon="7.1755">
        <ele>949.5503</ele>
        <time>2024-10-10T12:56:45Z</time>
      </trkpt>
      <trkpt lat="48.51612" lon="7.17555">
        <ele>949.5503</ele>
        <time>2024-10-10T12:56:53Z</time>
      </trkpt>
      <trkpt lat="48.51609" lon="7.1756">
        <ele>949.5503</ele>
        <time>2024-10-10T12:57:21Z</time>
      </trkpt>
      <trkpt lat="48.51607" lon="7.17566">
        <ele>949.5503</ele>
        <time>2024-10-10T12:57:54Z</time>
      </trkpt>
      <trkpt lat="48.51606" lon="7.17573">
        <ele>949.5503</ele>
        <time>2024-10-10T12:59:00Z</time>
      </trkpt>
      <trkpt lat="48.51606" lon="7.1758">
        <ele>949.5503</ele>
        <time>2024-10-10T13:00:16Z</time>
      </trkpt>
      <trkpt lat="48.51601" lon="7.17579">
        <ele>949.5503</ele>
        <time>2024-10-10T13:00:51Z</time>
      </trkpt>
      <trkpt lat="48.51601" lon="7.17586">
        <ele>949.5503</ele>
        <time>2024-10-10T13:01:25Z</time>
      </trkpt>
      <trkpt lat="48.51606" lon="7.17588">
        <ele>949.5503</ele>
        <time>2024-10-10T13:01:50Z</time>
      </trkpt>
      <trkpt lat="48.51609" lon="7.17593">
        <ele>949.5503</ele>
        <time>2024-10-10T13:02:19Z</time>
      </trkpt>
      <trkpt lat="48.51614" lon="7.17595">
        <ele>959.6178</ele>
        <time>2024-10-10T13:04:04Z</time>
      </trkpt>
      <trkpt lat="48.51609" lon="7.1759">
        <ele>959.6178</ele>
        <time>2024-10-10T13:06:56Z</time>
      </trkpt>
      <trkpt lat="48.5161" lon="7.17584">
        <ele>959.6178</ele>
        <time>2024-10-10T13:08:06Z</time>
      </trkpt>
      <trkpt lat="48.51605" lon="7.17582">
        <ele>959.6178</ele>
        <time>2024-10-10T13:08:26Z</time>
      </trkpt>
      <trkpt lat="48.51608" lon="7.17574">
        <ele>959.6178</ele>
        <time>2024-10-10T13:09:03Z</time>
      </trkpt>
      <trkpt lat="48.51609" lon="7.17566">
        <ele>959.6178</ele>
        <time>2024-10-10T13:09:36Z</time>
      </trkpt>
      <trkpt lat="48.51609" lon="7.17559">
        <ele>959.6178</ele>
        <time>2024-10-10T13:10:03Z</time>
      </trkpt>
      <trkpt lat="48.51613" lon="7.17554">
        <ele>959.6178</ele>
        <time>2024-10-10T13:10:16Z</time>
      </trkpt>
      <trkpt lat="48.51616" lon="7.17548">
        <ele>959.6178</ele>
        <time>2024-10-10T13:10:23Z</time>
      </trkpt>
      <trkpt lat="48.51622" lon="7.17545">
        <ele>959.6178</ele>
        <time>2024-10-10T13:10:32Z</time>
      </trkpt>
      <trkpt lat="48.51625" lon="7.17539">
        <ele>959.6178</ele>
        <time>2024-10-10T13:10:41Z</time>
      </trkpt>
      <trkpt lat="48.5163" lon="7.17537">
        <ele>948.83575</ele>
        <time>2024-10-10T13:10:53Z</time>
      </trkpt>
      <trkpt lat="48.51634" lon="7.17534">
        <ele>948.83575</ele>
        <time>2024-10-10T13:11:01Z</time>
      </trkpt>
      <trkpt lat="48.51638" lon="7.17531">
        <ele>948.83575</ele>
        <time>2024-10-10T13:11:13Z</time>
      </trkpt>
      <trkpt lat="48.51643" lon="7.1753">
        <ele>948.83575</ele>
        <time>2024-10-10T13:11:30Z</time>
      </trkpt>
      <trkpt lat="48.51646" lon="7.17526">
        <ele>948.83575</ele>
        <time>2024-10-10T13:11:42Z</time>
      </trkpt>
      <trkpt lat="48.51652" lon="7.17526">
        <ele>948.83575</ele>
        <time>2024-10-10T13:12:02Z</time>
      </trkpt>
      <trkpt lat="48.51656" lon="7.17522">
        <ele>948.83575</ele>
        <time>2024-10-10T13:12:22Z</time>
      </trkpt>
      <trkpt lat="48.5166" lon="7.1752">
        <ele>948.83575</ele>
        <time>2024-10-10T13:12:38Z</time>
      </trkpt>
      <trkpt lat="48.51665" lon="7.17518">
        <ele>938.77344</ele>
        <time>2024-10-10T13:12:46Z</time>
      </trkpt>
      <trkpt lat="48.51662" lon="7.17513">
        <ele>938.77344</ele>
        <time>2024-10-10T13:14:41Z</time>
      </trkpt>
      <trkpt lat="48.51666" lon="7.17516">
        <ele>938.77344</ele>
        <time>2024-10-10T13:18:16Z</time>
      </trkpt>
      <trkpt lat="48.51671" lon="7.17517">
        <ele>938.77344</ele>
        <time>2024-10-10T13:18:33Z</time>
      </trkpt>
      <trkpt lat="48.51675" lon="7.17517">
        <ele>938.77344</ele>
        <time>2024-10-10T13:18:39Z</time>
      </trkpt>
      <trkpt lat="48.51681" lon="7.17518">
        <ele>938.77344</ele>
        <time>2024-10-10T13:18:46Z</time>
      </trkpt>
      <trkpt lat="48.51685" lon="7.17521">
        <ele>938.77344</ele>
        <time>2024-10-10T13:19:17Z</time>
      </trkpt>
      <trkpt lat="48.51689" lon="7.17518">
        <ele>938.77344</ele>
        <time>2024-10-10T13:19:28Z</time>
      </trkpt>
      <trkpt lat="48.51693" lon="7.17515">
        <ele>938.77344</ele>
        <time>2024-10-10T13:19:45Z</time>
      </trkpt>
      <trkpt lat="48.51698" lon="7.17515">
        <ele>938.77344</ele>
        <time>2024-10-10T13:19:57Z</time>
      </trkpt>
      <trkpt lat="48.51703" lon="7.17517">
        <ele>938.77344</ele>
        <time>2024-10-10T13:20:05Z</time>
      </trkpt>
      <trkpt lat="48.51707" lon="7.17514">
        <ele>938.77344</ele>
        <time>2024-10-10T13:20:15Z</time>
      </trkpt>
      <trkpt lat="48.5171" lon="7.17519">
        <ele>938.77344</ele>
        <time>2024-10-10T13:20:27Z</time>
      </trkpt>
      <trkpt lat="48.51716" lon="7.1752">
        <ele>938.77344</ele>
        <time>2024-10-10T13:20:34Z</time>
      </trkpt>
      <trkpt lat="48.5172" lon="7.17522">
        <ele>938.77344</ele>
        <time>2024-10-10T13:20:41Z</time>
      </trkpt>
      <trkpt lat="48.51725" lon="7.17519">
        <ele>938.77344</ele>
        <time>2024-10-10T13:20:48Z</time>
      </trkpt>
      <trkpt lat="48.5173" lon="7.17524">
        <ele>927.9991</ele>
        <time>2024-10-10T13:21:01Z</time>
      </trkpt>
      <trkpt lat="48.51734" lon="7.17522">
        <ele>927.9991</ele>
        <time>2024-10-10T13:21:11Z</time>
      </trkpt>
      <trkpt lat="48.5174" lon="7.17523">
        <ele>927.9991</ele>
        <time>2024-10-10T13:21:19Z</time>
      </trkpt>
      <trkpt lat="48.51745" lon="7.17522">
        <ele>927.9991</ele>
        <time>2024-10-10T13:21:24Z</time>
      </trkpt>
      <trkpt lat="48.51749" lon="7.17522">
        <ele>927.9991</ele>
        <time>2024-10-10T13:21:33Z</time>
      </trkpt>
      <trkpt lat="48.51755" lon="7.17521">
        <ele>927.9991</ele>
        <time>2024-10-10T13:21:43Z</time>
      </trkpt>
      <trkpt lat="48.5176" lon="7.1752">
        <ele>927.9991</ele>
        <time>2024-10-10T13:22:09Z</time>
      </trkpt>
      <trkpt lat="48.51765" lon="7.17518">
        <ele>927.9991</ele>
        <time>2024-10-10T13:22:19Z</time>
      </trkpt>
      <trkpt lat="48.51769" lon="7.17516">
        <ele>927.9991</ele>
        <time>2024-10-10T13:22:34Z</time>
      </trkpt>
      <trkpt lat="48.51774" lon="7.17515">
        <ele>927.9991</ele>
        <time>2024-10-10T13:22:42Z</time>
      </trkpt>
      <trkpt lat="48.51779" lon="7.17513">
        <ele>927.9991</ele>
        <time>2024-10-10T13:22:47Z</time>
      </trkpt>
      <trkpt lat="48.51784" lon="7.17513">
        <ele>917.2929</ele>
        <time>2024-10-10T13:22:54Z</time>
      </trkpt>
      <trkpt lat="48.51788" lon="7.17509">
        <ele>917.2929</ele>
        <time>2024-10-10T13:23:01Z</time>
      </trkpt>
      <trkpt lat="48.51791" lon="7.17515">
        <ele>917.2929</ele>
        <time>2024-10-10T13:23:13Z</time>
      </trkpt>
      <trkpt lat="48.5179" lon="7.17508">
        <ele>917.2929</ele>
        <time>2024-10-10T13:23:31Z</time>
      </trkpt>
      <trkpt lat="48.51793" lon="7.17503">
        <ele>917.2929</ele>
        <time>2024-10-10T13:23:38Z</time>
      </trkpt>
      <trkpt lat="48.51798" lon="7.17498">
        <ele>917.2929</ele>
        <time>2024-10-10T13:23:44Z</time>
      </trkpt>
      <trkpt lat="48.51801" lon="7.17493">
        <ele>917.2929</ele>
        <time>2024-10-10T13:23:51Z</time>
      </trkpt>
      <trkpt lat="48.51805" lon="7.17489">
        <ele>917.2929</ele>
        <time>2024-10-10T13:23:56Z</time>
      </trkpt>
      <trkpt lat="48.51809" lon="7.17486">
        <ele>917.2929</ele>
        <time>2024-10-10T13:24:01Z</time>
      </trkpt>
      <trkpt lat="48.51814" lon="7.17485">
        <ele>917.2929</ele>
        <time>2024-10-10T13:24:10Z</time>
      </trkpt>
      <trkpt lat="48.51819" lon="7.17484">
        <ele>917.2929</ele>
        <time>2024-10-10T13:24:17Z</time>
      </trkpt>
      <trkpt lat="48.51823" lon="7.1748">
        <ele>917.2929</ele>
        <time>2024-10-10T13:24:31Z</time>
      </trkpt>
      <trkpt lat="48.51827" lon="7.1748">
        <ele>917.2929</ele>
        <time>2024-10-10T13:24:35Z</time>
      </trkpt>
      <trkpt lat="48.51828" lon="7.17471">
        <ele>917.2929</ele>
        <time>2024-10-10T13:24:42Z</time>
      </trkpt>
      <trkpt lat="48.51823" lon="7.17474">
        <ele>917.2929</ele>
        <time>2024-10-10T13:24:51Z</time>
      </trkpt>
      <trkpt lat="48.51827" lon="7.17469">
        <ele>917.2929</ele>
        <time>2024-10-10T13:24:57Z</time>
      </trkpt>
      <trkpt lat="48.51828" lon="7.17462">
        <ele>905.8192</ele>
        <time>2024-10-10T13:25:04Z</time>
      </trkpt>
      <trkpt lat="48.51831" lon="7.17456">
        <ele>905.8192</ele>
        <time>2024-10-10T13:25:26Z</time>
      </trkpt>
      <trkpt lat="48.51834" lon="7.1745">
        <ele>905.8192</ele>
        <time>2024-10-10T13:25:38Z</time>
      </trkpt>
      <trkpt lat="48.51838" lon="7.17446">
        <ele>905.8192</ele>
        <time>2024-10-10T13:25:46Z</time>
      </trkpt>
      <trkpt lat="48.51841" lon="7.17441">
        <ele>905.8192</ele>
        <time>2024-10-10T13:25:57Z</time>
      </trkpt>
      <trkpt lat="48.51844" lon="7.17436">
        <ele>905.8192</ele>
        <time>2024-10-10T13:26:02Z</time>
      </trkpt>
      <trkpt lat="48.51847" lon="7.1743">
        <ele>905.8192</ele>
        <time>2024-10-10T13:26:09Z</time>
      </trkpt>
      <trkpt lat="48.5185" lon="7.17425">
        <ele>905.8192</ele>
        <time>2024-10-10T13:26:16Z</time>
      </trkpt>
      <trkpt lat="48.51853" lon="7.17419">
        <ele>905.8192</ele>
        <time>2024-10-10T13:26:24Z</time>
      </trkpt>
      <trkpt lat="48.51857" lon="7.17413">
        <ele>905.8192</ele>
        <time>2024-10-10T13:30:00Z</time>
      </trkpt>
      <trkpt lat="48.51862" lon="7.17412">
        <ele>905.8192</ele>
        <time>2024-10-10T13:30:06Z</time>
      </trkpt>
      <trkpt lat="48.51866" lon="7.17411">
        <ele>905.8192</ele>
        <time>2024-10-10T13:30:13Z</time>
      </trkpt>
      <trkpt lat="48.5187" lon="7.17408">
        <ele>905.8192</ele>
        <time>2024-10-10T13:30:21Z</time>
      </trkpt>
      <trkpt lat="48.51875" lon="7.17409">
        <ele>905.8192</ele>
        <time>2024-10-10T13:30:26Z</time>
      </trkpt>
      <trkpt lat="48.5188" lon="7.17407">
        <ele>895.7664</ele>
        <time>2024-10-10T13:30:32Z</time>
      </trkpt>
      <trkpt lat="48.51884" lon="7.17405">
        <ele>895.7664</ele>
        <time>2024-10-10T13:30:37Z</time>
      </trkpt>
      <trkpt lat="48.51889" lon="7.17406">
        <ele>895.7664</ele>
        <time>2024-10-10T13:30:43Z</time>
      </trkpt>
      <trkpt lat="48.51894" lon="7.17403">
        <ele>895.7664</ele>
        <time>2024-10-10T13:30:51Z</time>
      </trkpt>
      <trkpt lat="48.51899" lon="7.17404">
        <ele>895.7664</ele>
        <time>2024-10-10T13:30:57Z</time>
      </trkpt>
      <trkpt lat="48.51904" lon="7.17401">
        <ele>895.7664</ele>
        <time>2024-10-10T13:31:03Z</time>
      </trkpt>
      <trkpt lat="48.51907" lon="7.17398">
        <ele>895.7664</ele>
        <time>2024-10-10T13:31:08Z</time>
      </trkpt>
      <trkpt lat="48.51912" lon="7.17395">
        <ele>895.7664</ele>
        <time>2024-10-10T13:31:14Z</time>
      </trkpt>
      <trkpt lat="48.51916" lon="7.17392">
        <ele>895.7664</ele>
        <time>2024-10-10T13:31:19Z</time>
      </trkpt>
      <trkpt lat="48.51921" lon="7.1739">
        <ele>895.7664</ele>
        <time>2024-10-10T13:31:23Z</time>
      </trkpt>
      <trkpt lat="48.51925" lon="7.17387">
        <ele>895.7664</ele>
        <time>2024-10-10T13:31:40Z</time>
      </trkpt>
      <trkpt lat="48.51929" lon="7.17384">
        <ele>895.7664</ele>
        <time>2024-10-10T13:31:59Z</time>
      </trkpt>
      <trkpt lat="48.51934" lon="7.17382">
        <ele>895.7664</ele>
        <time>2024-10-10T13:32:05Z</time>
      </trkpt>
      <trkpt lat="48.51938" lon="7.17379">
        <ele>895.7664</ele>
        <time>2024-10-10T13:32:12Z</time>
      </trkpt>
      <trkpt lat="48.51944" lon="7.17376">
        <ele>895.7664</ele>
        <time>2024-10-10T13:32:17Z</time>
      </trkpt>
      <trkpt lat="48.51949" lon="7.17374">
        <ele>895.7664</ele>
        <time>2024-10-10T13:32:22Z</time>
      </trkpt>
      <trkpt lat="48.51953" lon="7.17371">
        <ele>895.7664</ele>
        <time>2024-10-10T13:32:27Z</time>
      </trkpt>
      <trkpt lat="48.51958" lon="7.17369">
        <ele>895.7664</ele>
        <time>2024-10-10T13:32:34Z</time>
      </trkpt>
      <trkpt lat="48.51962" lon="7.17366">
        <ele>895.7664</ele>
        <time>2024-10-10T13:32:39Z</time>
      </trkpt>
      <trkpt lat="48.51968" lon="7.17364">
        <ele>895.7664</ele>
        <time>2024-10-10T13:32:45Z</time>
      </trkpt>
      <trkpt lat="48.51972" lon="7.17362">
        <ele>895.7664</ele>
        <time>2024-10-10T13:32:51Z</time>
      </trkpt>
      <trkpt lat="48.51978" lon="7.1736">
        <ele>895.7664</ele>
        <time>2024-10-10T13:32:57Z</time>
      </trkpt>
      <trkpt lat="48.51983" lon="7.17356">
        <ele>895.7664</ele>
        <time>2024-10-10T13:33:03Z</time>
      </trkpt>
      <trkpt lat="48.51988" lon="7.17353">
        <ele>895.7664</ele>
        <time>2024-10-10T13:33:09Z</time>
      </trkpt>
      <trkpt lat="48.51992" lon="7.1735">
        <ele>895.7664</ele>
        <time>2024-10-10T13:33:14Z</time>
      </trkpt>
      <trkpt lat="48.51996" lon="7.17345">
        <ele>895.7664</ele>
        <time>2024-10-10T13:33:19Z</time>
      </trkpt>
      <trkpt lat="48.52" lon="7.17341">
        <ele>895.7664</ele>
        <time>2024-10-10T13:33:24Z</time>
      </trkpt>
      <trkpt lat="48.52005" lon="7.17337">
        <ele>895.7664</ele>
        <time>2024-10-10T13:33:29Z</time>
      </trkpt>
      <trkpt lat="48.52008" lon="7.17333">
        <ele>895.7664</ele>
        <time>2024-10-10T13:33:48Z</time>
      </trkpt>
      <trkpt lat="48.52012" lon="7.17329">
        <ele>895.7664</ele>
        <time>2024-10-10T13:33:54Z</time>
      </trkpt>
      <trkpt lat="48.52017" lon="7.17326">
        <ele>895.7664</ele>
        <time>2024-10-10T13:33:58Z</time>
      </trkpt>
      <trkpt lat="48.52021" lon="7.17323">
        <ele>895.7664</ele>
        <time>2024-10-10T13:34:06Z</time>
      </trkpt>
      <trkpt lat="48.52025" lon="7.17319">
        <ele>895.7664</ele>
        <time>2024-10-10T13:34:13Z</time>
      </trkpt>
      <trkpt lat="48.52028" lon="7.17314">
        <ele>895.7664</ele>
        <time>2024-10-10T13:34:38Z</time>
      </trkpt>
      <trkpt lat="48.52031" lon="7.17309">
        <ele>895.7664</ele>
        <time>2024-10-10T13:35:14Z</time>
      </trkpt>
      <trkpt lat="48.52028" lon="7.17316">
        <ele>895.7664</ele>
        <time>2024-10-10T13:35:41Z</time>
      </trkpt>
      <trkpt lat="48.52028" lon="7.17323">
        <ele>895.7664</ele>
        <time>2024-10-10T13:35:45Z</time>
      </trkpt>
      <trkpt lat="48.52026" lon="7.17331">
        <ele>895.7664</ele>
        <time>2024-10-10T13:35:51Z</time>
      </trkpt>
      <trkpt lat="48.52022" lon="7.17328">
        <ele>895.7664</ele>
        <time>2024-10-10T13:36:03Z</time>
      </trkpt>
      <trkpt lat="48.52026" lon="7.17333">
        <ele>895.7664</ele>
        <time>2024-10-10T13:36:37Z</time>
      </trkpt>
      <trkpt lat="48.52025" lon="7.17341">
        <ele>895.7664</ele>
        <time>2024-10-10T13:38:00Z</time>
      </trkpt>
      <trkpt lat="48.52022" lon="7.17347">
        <ele>895.7664</ele>
        <time>2024-10-10T13:38:04Z</time>
      </trkpt>
      <trkpt lat="48.52018" lon="7.17353">
        <ele>895.7664</ele>
        <time>2024-10-10T13:38:08Z</time>
      </trkpt>
      <trkpt lat="48.52016" lon="7.17359">
        <ele>895.7664</ele>
        <time>2024-10-10T13:38:14Z</time>
      </trkpt>
      <trkpt lat="48.52011" lon="7.1736">
        <ele>895.7664</ele>
        <time>2024-10-10T13:38:20Z</time>
      </trkpt>
      <trkpt lat="48.52007" lon="7.17363">
        <ele>885.62915</ele>
        <time>2024-10-10T13:38:24Z</time>
      </trkpt>
      <trkpt lat="48.52004" lon="7.17368">
        <ele>885.62915</ele>
        <time>2024-10-10T13:38:29Z</time>
      </trkpt>
      <trkpt lat="48.52" lon="7.17372">
        <ele>885.62915</ele>
        <time>2024-10-10T13:39:36Z</time>
      </trkpt>
      <trkpt lat="48.51996" lon="7.17377">
        <ele>885.62915</ele>
        <time>2024-10-10T13:39:44Z</time>
      </trkpt>
      <trkpt lat="48.51991" lon="7.17379">
        <ele>885.62915</ele>
        <time>2024-10-10T13:39:58Z</time>
      </trkpt>
      <trkpt lat="48.51994" lon="7.17384">
        <ele>885.62915</ele>
        <time>2024-10-10T13:40:32Z</time>
      </trkpt>
      <trkpt lat="48.5199" lon="7.17389">
        <ele>885.62915</ele>
        <time>2024-10-10T13:40:39Z</time>
      </trkpt>
      <trkpt lat="48.51985" lon="7.17392">
        <ele>885.62915</ele>
        <time>2024-10-10T13:40:44Z</time>
      </trkpt>
      <trkpt lat="48.51981" lon="7.17397">
        <ele>885.62915</ele>
        <time>2024-10-10T13:40:49Z</time>
      </trkpt>
      <trkpt lat="48.51977" lon="7.17402">
        <ele>885.62915</ele>
        <time>2024-10-10T13:40:56Z</time>
      </trkpt>
      <trkpt lat="48.51973" lon="7.17407">
        <ele>885.62915</ele>
        <time>2024-10-10T13:41:00Z</time>
      </trkpt>
      <trkpt lat="48.51968" lon="7.17411">
        <ele>885.62915</ele>
        <time>2024-10-10T13:41:04Z</time>
      </trkpt>
      <trkpt lat="48.51965" lon="7.17416">
        <ele>885.62915</ele>
        <time>2024-10-10T13:41:10Z</time>
      </trkpt>
      <trkpt lat="48.51962" lon="7.17422">
        <ele>885.62915</ele>
        <time>2024-10-10T13:41:47Z</time>
      </trkpt>
      <trkpt lat="48.51957" lon="7.17426">
        <ele>885.62915</ele>
        <time>2024-10-10T13:41:52Z</time>
      </trkpt>
      <trkpt lat="48.51954" lon="7.17431">
        <ele>885.62915</ele>
        <time>2024-10-10T13:41:59Z</time>
      </trkpt>
      <trkpt lat="48.5195" lon="7.17435">
        <ele>885.62915</ele>
        <time>2024-10-10T13:42:03Z</time>
      </trkpt>
      <trkpt lat="48.51947" lon="7.1744">
        <ele>885.62915</ele>
        <time>2024-10-10T13:42:14Z</time>
      </trkpt>
      <trkpt lat="48.51944" lon="7.17445">
        <ele>885.62915</ele>
        <time>2024-10-10T13:42:29Z</time>
      </trkpt>
      <trkpt lat="48.5194" lon="7.1745">
        <ele>885.62915</ele>
        <time>2024-10-10T13:42:34Z</time>
      </trkpt>
      <trkpt lat="48.51936" lon="7.17456">
        <ele>875.54126</ele>
        <time>2024-10-10T13:42:39Z</time>
      </trkpt>
      <trkpt lat="48.51934" lon="7.17462">
        <ele>875.54126</ele>
        <time>2024-10-10T13:42:44Z</time>
      </trkpt>
      <trkpt lat="48.51931" lon="7.17468">
        <ele>875.54126</ele>
        <time>2024-10-10T13:42:48Z</time>
      </trkpt>
      <trkpt lat="48.51928" lon="7.17475">
        <ele>875.54126</ele>
        <time>2024-10-10T13:42:53Z</time>
      </trkpt>
      <trkpt lat="48.51925" lon="7.17481">
        <ele>875.54126</ele>
        <time>2024-10-10T13:42:58Z</time>
      </trkpt>
      <trkpt lat="48.51923" lon="7.17488">
        <ele>875.54126</ele>
        <time>2024-10-10T13:43:03Z</time>
      </trkpt>
      <trkpt lat="48.51921" lon="7.17494">
        <ele>875.54126</ele>
        <time>2024-10-10T13:43:08Z</time>
      </trkpt>
      <trkpt lat="48.51918" lon="7.17501">
        <ele>875.54126</ele>
        <time>2024-10-10T13:43:13Z</time>
      </trkpt>
      <trkpt lat="48.51916" lon="7.17507">
        <ele>875.54126</ele>
        <time>2024-10-10T13:43:18Z</time>
      </trkpt>
      <trkpt lat="48.51914" lon="7.17514">
        <ele>875.54126</ele>
        <time>2024-10-10T13:43:32Z</time>
      </trkpt>
      <trkpt lat="48.51911" lon="7.1752">
        <ele>875.54126</ele>
        <time>2024-10-10T13:43:37Z</time>
      </trkpt>
      <trkpt lat="48.51908" lon="7.17527">
        <ele>875.54126</ele>
        <time>2024-10-10T13:43:44Z</time>
      </trkpt>
      <trkpt lat="48.51906" lon="7.17534">
        <ele>875.54126</ele>
        <time>2024-10-10T13:43:49Z</time>
      </trkpt>
      <trkpt lat="48.51902" lon="7.17541">
        <ele>875.54126</ele>
        <time>2024-10-10T13:43:54Z</time>
      </trkpt>
      <trkpt lat="48.519" lon="7.17547">
        <ele>875.54126</ele>
        <time>2024-10-10T13:44:00Z</time>
      </trkpt>
      <trkpt lat="48.51897" lon="7.17554">
        <ele>875.54126</ele>
        <time>2024-10-10T13:44:07Z</time>
      </trkpt>
      <trkpt lat="48.51894" lon="7.1756">
        <ele>875.54126</ele>
        <time>2024-10-10T13:44:12Z</time>
      </trkpt>
      <trkpt lat="48.51892" lon="7.17566">
        <ele>875.54126</ele>
        <time>2024-10-10T13:44:17Z</time>
      </trkpt>
      <trkpt lat="48.51889" lon="7.17572">
        <ele>875.54126</ele>
        <time>2024-10-10T13:44:22Z</time>
      </trkpt>
      <trkpt lat="48.51886" lon="7.17578">
        <ele>875.54126</ele>
        <time>2024-10-10T13:44:28Z</time>
      </trkpt>
      <trkpt lat="48.51883" lon="7.17584">
        <ele>875.54126</ele>
        <time>2024-10-10T13:44:33Z</time>
      </trkpt>
      <trkpt lat="48.5188" lon="7.1759">
        <ele>875.54126</ele>
        <time>2024-10-10T13:44:38Z</time>
      </trkpt>
      <trkpt lat="48.51877" lon="7.17596">
        <ele>875.54126</ele>
        <time>2024-10-10T13:44:43Z</time>
      </trkpt>
      <trkpt lat="48.51875" lon="7.17602">
        <ele>875.54126</ele>
        <time>2024-10-10T13:44:48Z</time>
      </trkpt>
      <trkpt lat="48.51872" lon="7.17608">
        <ele>875.54126</ele>
        <time>2024-10-10T13:44:53Z</time>
      </trkpt>
      <trkpt lat="48.51869" lon="7.17614">
        <ele>875.54126</ele>
        <time>2024-10-10T13:44:58Z</time>
      </trkpt>
      <trkpt lat="48.51867" lon="7.1762">
        <ele>875.54126</ele>
        <time>2024-10-10T13:45:03Z</time>
      </trkpt>
      <trkpt lat="48.51864" lon="7.17626">
        <ele>875.54126</ele>
        <time>2024-10-10T13:45:08Z</time>
      </trkpt>
      <trkpt lat="48.51861" lon="7.17633">
        <ele>875.54126</ele>
        <time>2024-10-10T13:45:14Z</time>
      </trkpt>
      <trkpt lat="48.51858" lon="7.1764">
        <ele>875.54126</ele>
        <time>2024-10-10T13:45:20Z</time>
      </trkpt>
      <trkpt lat="48.51855" lon="7.17645">
        <ele>875.54126</ele>
        <time>2024-10-10T13:45:29Z</time>
      </trkpt>
      <trkpt lat="48.51852" lon="7.1765">
        <ele>875.54126</ele>
        <time>2024-10-10T13:45:46Z</time>
      </trkpt>
      <trkpt lat="48.51848" lon="7.17655">
        <ele>864.6499</ele>
        <time>2024-10-10T13:45:54Z</time>
      </trkpt>
      <trkpt lat="48.51844" lon="7.17661">
        <ele>864.6499</ele>
        <time>2024-10-10T13:45:59Z</time>
      </trkpt>
      <trkpt lat="48.51843" lon="7.17668">
        <ele>864.6499</ele>
        <time>2024-10-10T13:46:03Z</time>
      </trkpt>
      <trkpt lat="48.51847" lon="7.17662">
        <ele>864.6499</ele>
        <time>2024-10-10T13:46:15Z</time>
      </trkpt>
      <trkpt lat="48.51851" lon="7.1766">
        <ele>864.6499</ele>
        <time>2024-10-10T13:46:44Z</time>
      </trkpt>
      <trkpt lat="48.51847" lon="7.17663">
        <ele>864.6499</ele>
        <time>2024-10-10T13:46:51Z</time>
      </trkpt>
      <trkpt lat="48.51843" lon="7.17667">
        <ele>864.6499</ele>
        <time>2024-10-10T13:47:10Z</time>
      </trkpt>
      <trkpt lat="48.51838" lon="7.17671">
        <ele>864.6499</ele>
        <time>2024-10-10T13:47:15Z</time>
      </trkpt>
      <trkpt lat="48.51834" lon="7.17675">
        <ele>864.6499</ele>
        <time>2024-10-10T13:47:20Z</time>
      </trkpt>
      <trkpt lat="48.5183" lon="7.1768">
        <ele>864.6499</ele>
        <time>2024-10-10T13:47:25Z</time>
      </trkpt>
      <trkpt lat="48.51826" lon="7.17685">
        <ele>864.6499</ele>
        <time>2024-10-10T13:47:30Z</time>
      </trkpt>
      <trkpt lat="48.51822" lon="7.17689">
        <ele>864.6499</ele>
        <time>2024-10-10T13:47:35Z</time>
      </trkpt>
      <trkpt lat="48.51818" lon="7.17693">
        <ele>864.6499</ele>
        <time>2024-10-10T13:47:41Z</time>
      </trkpt>
      <trkpt lat="48.51814" lon="7.17697">
        <ele>864.6499</ele>
        <time>2024-10-10T13:47:46Z</time>
      </trkpt>
      <trkpt lat="48.51809" lon="7.17701">
        <ele>864.6499</ele>
        <time>2024-10-10T13:47:51Z</time>
      </trkpt>
      <trkpt lat="48.51805" lon="7.17705">
        <ele>864.6499</ele>
        <time>2024-10-10T13:47:56Z</time>
      </trkpt>
      <trkpt lat="48.51801" lon="7.17709">
        <ele>864.6499</ele>
        <time>2024-10-10T13:48:02Z</time>
      </trkpt>
      <trkpt lat="48.51797" lon="7.17713">
        <ele>864.6499</ele>
        <time>2024-10-10T13:49:00Z</time>
      </trkpt>
      <trkpt lat="48.51792" lon="7.17716">
        <ele>864.6499</ele>
        <time>2024-10-10T13:49:12Z</time>
      </trkpt>
      <trkpt lat="48.51787" lon="7.17718">
        <ele>864.6499</ele>
        <time>2024-10-10T13:49:17Z</time>
      </trkpt>
      <trkpt lat="48.51782" lon="7.17721">
        <ele>864.6499</ele>
        <time>2024-10-10T13:49:21Z</time>
      </trkpt>
      <trkpt lat="48.51778" lon="7.17723">
        <ele>864.6499</ele>
        <time>2024-10-10T13:49:26Z</time>
      </trkpt>
      <trkpt lat="48.51773" lon="7.17725">
        <ele>864.6499</ele>
        <time>2024-10-10T13:49:31Z</time>
      </trkpt>
      <trkpt lat="48.51768" lon="7.17728">
        <ele>864.6499</ele>
        <time>2024-10-10T13:49:36Z</time>
      </trkpt>
      <trkpt lat="48.51764" lon="7.1773">
        <ele>864.6499</ele>
        <time>2024-10-10T13:49:41Z</time>
      </trkpt>
      <trkpt lat="48.51759" lon="7.17733">
        <ele>864.6499</ele>
        <time>2024-10-10T13:49:45Z</time>
      </trkpt>
      <trkpt lat="48.51754" lon="7.17735">
        <ele>854.56824</ele>
        <time>2024-10-10T13:49:51Z</time>
      </trkpt>
      <trkpt lat="48.51749" lon="7.17739">
        <ele>854.56824</ele>
        <time>2024-10-10T13:49:56Z</time>
      </trkpt>
      <trkpt lat="48.51746" lon="7.17742">
        <ele>854.56824</ele>
        <time>2024-10-10T13:50:02Z</time>
      </trkpt>
      <trkpt lat="48.5174" lon="7.17746">
        <ele>854.56824</ele>
        <time>2024-10-10T13:50:07Z</time>
      </trkpt>
      <trkpt lat="48.51736" lon="7.17748">
        <ele>854.56824</ele>
        <time>2024-10-10T13:50:14Z</time>
      </trkpt>
      <trkpt lat="48.51732" lon="7.17753">
        <ele>854.56824</ele>
        <time>2024-10-10T13:50:22Z</time>
      </trkpt>
      <trkpt lat="48.51726" lon="7.17756">
        <ele>854.56824</ele>
        <time>2024-10-10T13:50:27Z</time>
      </trkpt>
      <trkpt lat="48.51722" lon="7.17759">
        <ele>854.56824</ele>
        <time>2024-10-10T13:50:33Z</time>
      </trkpt>
      <trkpt lat="48.51724" lon="7.17767">
        <ele>854.56824</ele>
        <time>2024-10-10T13:51:09Z</time>
      </trkpt>
      <trkpt lat="48.51719" lon="7.17768">
        <ele>854.56824</ele>
        <time>2024-10-10T13:51:42Z</time>
      </trkpt>
      <trkpt lat="48.51719" lon="7.17761">
        <ele>854.56824</ele>
        <time>2024-10-10T13:51:55Z</time>
      </trkpt>
      <trkpt lat="48.51724" lon="7.17758">
        <ele>854.56824</ele>
        <time>2024-10-10T13:52:06Z</time>
      </trkpt>
      <trkpt lat="48.51729" lon="7.17756">
        <ele>854.56824</ele>
        <time>2024-10-10T13:52:23Z</time>
      </trkpt>
      <trkpt lat="48.51734" lon="7.17756">
        <ele>854.56824</ele>
        <time>2024-10-10T13:52:27Z</time>
      </trkpt>
      <trkpt lat="48.51739" lon="7.17755">
        <ele>854.56824</ele>
        <time>2024-10-10T13:52:33Z</time>
      </trkpt>
      <trkpt lat="48.51744" lon="7.17756">
        <ele>854.56824</ele>
        <time>2024-10-10T13:52:35Z</time>
      </trkpt>
      <trkpt lat="48.51751" lon="7.17755">
        <ele>854.56824</ele>
        <time>2024-10-10T13:52:40Z</time>
      </trkpt>
      <trkpt lat="48.51755" lon="7.17758">
        <ele>854.56824</ele>
        <time>2024-10-10T13:52:43Z</time>
      </trkpt>
      <trkpt lat="48.5176" lon="7.17755">
        <ele>854.56824</ele>
        <time>2024-10-10T13:52:48Z</time>
      </trkpt>
      <trkpt lat="48.51765" lon="7.17756">
        <ele>854.56824</ele>
        <time>2024-10-10T13:52:53Z</time>
      </trkpt>
      <trkpt lat="48.5177" lon="7.17759">
        <ele>854.56824</ele>
        <time>2024-10-10T13:52:58Z</time>
      </trkpt>
      <trkpt lat="48.51775" lon="7.17757">
        <ele>854.56824</ele>
        <time>2024-10-10T13:53:03Z</time>
      </trkpt>
      <trkpt lat="48.5178" lon="7.17754">
        <ele>854.56824</ele>
        <time>2024-10-10T13:53:10Z</time>
      </trkpt>
      <trkpt lat="48.51785" lon="7.17755">
        <ele>854.56824</ele>
        <time>2024-10-10T13:53:18Z</time>
      </trkpt>
      <trkpt lat="48.5179" lon="7.17755">
        <ele>854.56824</ele>
        <time>2024-10-10T13:53:22Z</time>
      </trkpt>
      <trkpt lat="48.51795" lon="7.17752">
        <ele>854.56824</ele>
        <time>2024-10-10T13:53:28Z</time>
      </trkpt>
      <trkpt lat="48.518" lon="7.17749">
        <ele>854.56824</ele>
        <time>2024-10-10T13:53:38Z</time>
      </trkpt>
      <trkpt lat="48.51804" lon="7.17746">
        <ele>854.56824</ele>
        <time>2024-10-10T13:53:42Z</time>
      </trkpt>
      <trkpt lat="48.51809" lon="7.17743">
        <ele>854.56824</ele>
        <time>2024-10-10T13:53:46Z</time>
      </trkpt>
      <trkpt lat="48.51814" lon="7.17743">
        <ele>854.56824</ele>
        <time>2024-10-10T13:53:50Z</time>
      </trkpt>
      <trkpt lat="48.51818" lon="7.17744">
        <ele>854.56824</ele>
        <time>2024-10-10T13:53:56Z</time>
      </trkpt>
      <trkpt lat="48.51823" lon="7.17742">
        <ele>854.56824</ele>
        <time>2024-10-10T13:53:59Z</time>
      </trkpt>
      <trkpt lat="48.51827" lon="7.17739">
        <ele>844.42474</ele>
        <time>2024-10-10T13:54:04Z</time>
      </trkpt>
      <trkpt lat="48.51832" lon="7.17738">
        <ele>844.42474</ele>
        <time>2024-10-10T13:54:07Z</time>
      </trkpt>
      <trkpt lat="48.51837" lon="7.17736">
        <ele>844.42474</ele>
        <time>2024-10-10T13:54:12Z</time>
      </trkpt>
      <trkpt lat="48.51841" lon="7.17733">
        <ele>844.42474</ele>
        <time>2024-10-10T13:54:23Z</time>
      </trkpt>
      <trkpt lat="48.51846" lon="7.17731">
        <ele>844.42474</ele>
        <time>2024-10-10T13:54:27Z</time>
      </trkpt>
      <trkpt lat="48.51849" lon="7.17726">
        <ele>844.42474</ele>
        <time>2024-10-10T13:54:33Z</time>
      </trkpt>
      <trkpt lat="48.51854" lon="7.17725">
        <ele>844.42474</ele>
        <time>2024-10-10T13:54:44Z</time>
      </trkpt>
      <trkpt lat="48.51858" lon="7.17721">
        <ele>844.42474</ele>
        <time>2024-10-10T13:54:50Z</time>
      </trkpt>
      <trkpt lat="48.51862" lon="7.17714">
        <ele>844.42474</ele>
        <time>2024-10-10T13:54:56Z</time>
      </trkpt>
      <trkpt lat="48.51867" lon="7.1771">
        <ele>844.42474</ele>
        <time>2024-10-10T13:55:04Z</time>
      </trkpt>
      <trkpt lat="48.51871" lon="7.17706">
        <ele>844.42474</ele>
        <time>2024-10-10T13:55:09Z</time>
      </trkpt>
      <trkpt lat="48.51873" lon="7.17699">
        <ele>844.42474</ele>
        <time>2024-10-10T13:55:13Z</time>
      </trkpt>
      <trkpt lat="48.51876" lon="7.17694">
        <ele>844.42474</ele>
        <time>2024-10-10T13:55:16Z</time>
      </trkpt>
      <trkpt lat="48.51882" lon="7.1769">
        <ele>844.42474</ele>
        <time>2024-10-10T13:55:21Z</time>
      </trkpt>
      <trkpt lat="48.51887" lon="7.17685">
        <ele>844.42474</ele>
        <time>2024-10-10T13:55:27Z</time>
      </trkpt>
      <trkpt lat="48.5189" lon="7.17678">
        <ele>844.42474</ele>
        <time>2024-10-10T13:55:32Z</time>
      </trkpt>
      <trkpt lat="48.51894" lon="7.17674">
        <ele>844.42474</ele>
        <time>2024-10-10T13:55:35Z</time>
      </trkpt>
      <trkpt lat="48.51897" lon="7.17669">
        <ele>844.42474</ele>
        <time>2024-10-10T13:55:40Z</time>
      </trkpt>
      <trkpt lat="48.51901" lon="7.17665">
        <ele>844.42474</ele>
        <time>2024-10-10T13:55:44Z</time>
      </trkpt>
      <trkpt lat="48.51905" lon="7.17661">
        <ele>844.42474</ele>
        <time>2024-10-10T13:55:49Z</time>
      </trkpt>
      <trkpt lat="48.51909" lon="7.17656">
        <ele>844.42474</ele>
        <time>2024-10-10T13:55:53Z</time>
      </trkpt>
      <trkpt lat="48.51914" lon="7.17652">
        <ele>844.42474</ele>
        <time>2024-10-10T13:55:57Z</time>
      </trkpt>
      <trkpt lat="48.51917" lon="7.17646">
        <ele>844.42474</ele>
        <time>2024-10-10T13:56:03Z</time>
      </trkpt>
      <trkpt lat="48.51919" lon="7.1764">
        <ele>844.42474</ele>
        <time>2024-10-10T13:56:09Z</time>
      </trkpt>
      <trkpt lat="48.51923" lon="7.17635">
        <ele>844.42474</ele>
        <time>2024-10-10T13:56:14Z</time>
      </trkpt>
      <trkpt lat="48.51925" lon="7.17627">
        <ele>844.42474</ele>
        <time>2024-10-10T13:56:20Z</time>
      </trkpt>
      <trkpt lat="48.51928" lon="7.17622">
        <ele>844.42474</ele>
        <time>2024-10-10T13:56:25Z</time>
      </trkpt>
      <trkpt lat="48.51931" lon="7.17613">
        <ele>844.42474</ele>
        <time>2024-10-10T13:56:31Z</time>
      </trkpt>
      <trkpt lat="48.51934" lon="7.17607">
        <ele>844.42474</ele>
        <time>2024-10-10T13:56:35Z</time>
      </trkpt>
      <trkpt lat="48.51937" lon="7.17601">
        <ele>844.42474</ele>
        <time>2024-10-10T13:56:41Z</time>
      </trkpt>
      <trkpt lat="48.51939" lon="7.17593">
        <ele>844.42474</ele>
        <time>2024-10-10T13:56:46Z</time>
      </trkpt>
      <trkpt lat="48.51941" lon="7.17587">
        <ele>844.42474</ele>
        <time>2024-10-10T13:56:51Z</time>
      </trkpt>
      <trkpt lat="48.51944" lon="7.17581">
        <ele>844.42474</ele>
        <time>2024-10-10T13:56:57Z</time>
      </trkpt>
      <trkpt lat="48.51947" lon="7.17575">
        <ele>844.42474</ele>
        <time>2024-10-10T13:57:03Z</time>
      </trkpt>
      <trkpt lat="48.51951" lon="7.17571">
        <ele>844.42474</ele>
        <time>2024-10-10T13:57:09Z</time>
      </trkpt>
      <trkpt lat="48.51955" lon="7.17567">
        <ele>844.42474</ele>
        <time>2024-10-10T13:57:18Z</time>
      </trkpt>
      <trkpt lat="48.51954" lon="7.17574">
        <ele>831.92725</ele>
        <time>2024-10-10T13:57:31Z</time>
      </trkpt>
      <trkpt lat="48.51955" lon="7.17567">
        <ele>831.92725</ele>
        <time>2024-10-10T13:57:44Z</time>
      </trkpt>
      <trkpt lat="48.51959" lon="7.17562">
        <ele>831.92725</ele>
        <time>2024-10-10T13:57:49Z</time>
      </trkpt>
      <trkpt lat="48.51963" lon="7.17558">
        <ele>831.92725</ele>
        <time>2024-10-10T13:57:54Z</time>
      </trkpt>
      <trkpt lat="48.51967" lon="7.17552">
        <ele>831.92725</ele>
        <time>2024-10-10T13:57:59Z</time>
      </trkpt>
      <trkpt lat="48.51971" lon="7.17548">
        <ele>831.92725</ele>
        <time>2024-10-10T13:58:05Z</time>
      </trkpt>
      <trkpt lat="48.51971" lon="7.1754">
        <ele>831.92725</ele>
        <time>2024-10-10T13:58:11Z</time>
      </trkpt>
      <trkpt lat="48.51975" lon="7.17536">
        <ele>831.92725</ele>
        <time>2024-10-10T13:58:15Z</time>
      </trkpt>
      <trkpt lat="48.5198" lon="7.17533">
        <ele>831.92725</ele>
        <time>2024-10-10T13:58:18Z</time>
      </trkpt>
      <trkpt lat="48.51983" lon="7.17528">
        <ele>831.92725</ele>
        <time>2024-10-10T13:58:22Z</time>
      </trkpt>
      <trkpt lat="48.51989" lon="7.17525">
        <ele>831.92725</ele>
        <time>2024-10-10T13:58:27Z</time>
      </trkpt>
      <trkpt lat="48.51992" lon="7.17521">
        <ele>831.92725</ele>
        <time>2024-10-10T13:58:31Z</time>
      </trkpt>
      <trkpt lat="48.51997" lon="7.17516">
        <ele>831.92725</ele>
        <time>2024-10-10T13:58:37Z</time>
      </trkpt>
      <trkpt lat="48.52002" lon="7.17512">
        <ele>831.92725</ele>
        <time>2024-10-10T13:58:42Z</time>
      </trkpt>
      <trkpt lat="48.52007" lon="7.1751">
        <ele>831.92725</ele>
        <time>2024-10-10T13:58:48Z</time>
      </trkpt>
      <trkpt lat="48.52013" lon="7.17505">
        <ele>831.92725</ele>
        <time>2024-10-10T13:58:53Z</time>
      </trkpt>
      <trkpt lat="48.52017" lon="7.17502">
        <ele>831.92725</ele>
        <time>2024-10-10T13:58:59Z</time>
      </trkpt>
      <trkpt lat="48.52023" lon="7.17498">
        <ele>831.92725</ele>
        <time>2024-10-10T13:59:04Z</time>
      </trkpt>
      <trkpt lat="48.52027" lon="7.17492">
        <ele>831.92725</ele>
        <time>2024-10-10T13:59:10Z</time>
      </trkpt>
      <trkpt lat="48.52032" lon="7.17491">
        <ele>831.92725</ele>
        <time>2024-10-10T13:59:12Z</time>
      </trkpt>
      <trkpt lat="48.52036" lon="7.17486">
        <ele>831.92725</ele>
        <time>2024-10-10T13:59:17Z</time>
      </trkpt>
      <trkpt lat="48.5204" lon="7.17483">
        <ele>831.92725</ele>
        <time>2024-10-10T13:59:21Z</time>
      </trkpt>
      <trkpt lat="48.52045" lon="7.17481">
        <ele>831.92725</ele>
        <time>2024-10-10T13:59:26Z</time>
      </trkpt>
      <trkpt lat="48.5205" lon="7.17482">
        <ele>831.92725</ele>
        <time>2024-10-10T13:59:31Z</time>
      </trkpt>
      <trkpt lat="48.52054" lon="7.1748">
        <ele>831.92725</ele>
        <time>2024-10-10T13:59:35Z</time>
      </trkpt>
      <trkpt lat="48.52058" lon="7.17476">
        <ele>831.92725</ele>
        <time>2024-10-10T13:59:40Z</time>
      </trkpt>
      <trkpt lat="48.52063" lon="7.17474">
        <ele>831.92725</ele>
        <time>2024-10-10T13:59:44Z</time>
      </trkpt>
      <trkpt lat="48.52069" lon="7.17476">
        <ele>831.92725</ele>
        <time>2024-10-10T13:59:49Z</time>
      </trkpt>
      <trkpt lat="48.52077" lon="7.17476">
        <ele>831.92725</ele>
        <time>2024-10-10T13:59:51Z</time>
      </trkpt>
      <trkpt lat="48.52082" lon="7.17476">
        <ele>831.92725</ele>
        <time>2024-10-10T14:00:00Z</time>
      </trkpt>
      <trkpt lat="48.52086" lon="7.17473">
        <ele>831.92725</ele>
        <time>2024-10-10T14:00:04Z</time>
      </trkpt>
      <trkpt lat="48.52091" lon="7.1747">
        <ele>831.92725</ele>
        <time>2024-10-10T14:00:07Z</time>
      </trkpt>
      <trkpt lat="48.52095" lon="7.17468">
        <ele>831.92725</ele>
        <time>2024-10-10T14:00:10Z</time>
      </trkpt>
      <trkpt lat="48.52101" lon="7.17468">
        <ele>831.92725</ele>
        <time>2024-10-10T14:00:15Z</time>
      </trkpt>
      <trkpt lat="48.52106" lon="7.17469">
        <ele>831.92725</ele>
        <time>2024-10-10T14:00:21Z</time>
      </trkpt>
      <trkpt lat="48.52112" lon="7.17469">
        <ele>831.92725</ele>
        <time>2024-10-10T14:00:25Z</time>
      </trkpt>
      <trkpt lat="48.52118" lon="7.17468">
        <ele>831.92725</ele>
        <time>2024-10-10T14:00:33Z</time>
      </trkpt>
      <trkpt lat="48.52123" lon="7.17468">
        <ele>831.92725</ele>
        <time>2024-10-10T14:00:40Z</time>
      </trkpt>
      <trkpt lat="48.52128" lon="7.17472">
        <ele>821.64905</ele>
        <time>2024-10-10T14:00:48Z</time>
      </trkpt>
      <trkpt lat="48.52133" lon="7.17475">
        <ele>821.64905</ele>
        <time>2024-10-10T14:00:58Z</time>
      </trkpt>
      <trkpt lat="48.52138" lon="7.17474">
        <ele>821.64905</ele>
        <time>2024-10-10T14:01:01Z</time>
      </trkpt>
      <trkpt lat="48.52143" lon="7.17475">
        <ele>821.64905</ele>
        <time>2024-10-10T14:01:05Z</time>
      </trkpt>
      <trkpt lat="48.52148" lon="7.17475">
        <ele>821.64905</ele>
        <time>2024-10-10T14:01:09Z</time>
      </trkpt>
      <trkpt lat="48.52152" lon="7.17478">
        <ele>821.64905</ele>
        <time>2024-10-10T14:01:12Z</time>
      </trkpt>
      <trkpt lat="48.52158" lon="7.17477">
        <ele>821.64905</ele>
        <time>2024-10-10T14:01:15Z</time>
      </trkpt>
      <trkpt lat="48.52163" lon="7.17479">
        <ele>821.64905</ele>
        <time>2024-10-10T14:01:20Z</time>
      </trkpt>
      <trkpt lat="48.52169" lon="7.1748">
        <ele>821.64905</ele>
        <time>2024-10-10T14:01:25Z</time>
      </trkpt>
      <trkpt lat="48.52174" lon="7.17481">
        <ele>821.64905</ele>
        <time>2024-10-10T14:01:30Z</time>
      </trkpt>
      <trkpt lat="48.52181" lon="7.1748">
        <ele>821.64905</ele>
        <time>2024-10-10T14:01:36Z</time>
      </trkpt>
      <trkpt lat="48.52186" lon="7.17482">
        <ele>821.64905</ele>
        <time>2024-10-10T14:01:42Z</time>
      </trkpt>
      <trkpt lat="48.5219" lon="7.17486">
        <ele>821.64905</ele>
        <time>2024-10-10T14:01:47Z</time>
      </trkpt>
      <trkpt lat="48.52194" lon="7.17491">
        <ele>821.64905</ele>
        <time>2024-10-10T14:01:52Z</time>
      </trkpt>
      <trkpt lat="48.52199" lon="7.17496">
        <ele>821.64905</ele>
        <time>2024-10-10T14:01:59Z</time>
      </trkpt>
      <trkpt lat="48.52203" lon="7.175">
        <ele>821.64905</ele>
        <time>2024-10-10T14:02:03Z</time>
      </trkpt>
      <trkpt lat="48.52206" lon="7.17506">
        <ele>821.64905</ele>
        <time>2024-10-10T14:02:10Z</time>
      </trkpt>
      <trkpt lat="48.52211" lon="7.17508">
        <ele>821.64905</ele>
        <time>2024-10-10T14:02:16Z</time>
      </trkpt>
      <trkpt lat="48.52216" lon="7.17509">
        <ele>821.64905</ele>
        <time>2024-10-10T14:02:22Z</time>
      </trkpt>
      <trkpt lat="48.5222" lon="7.17513">
        <ele>821.64905</ele>
        <time>2024-10-10T14:02:28Z</time>
      </trkpt>
      <trkpt lat="48.52225" lon="7.1751">
        <ele>810.24097</ele>
        <time>2024-10-10T14:02:33Z</time>
      </trkpt>
      <trkpt lat="48.52229" lon="7.17513">
        <ele>810.24097</ele>
        <time>2024-10-10T14:02:38Z</time>
      </trkpt>
      <trkpt lat="48.52234" lon="7.17516">
        <ele>810.24097</ele>
        <time>2024-10-10T14:02:43Z</time>
      </trkpt>
      <trkpt lat="48.52238" lon="7.1752">
        <ele>810.24097</ele>
        <time>2024-10-10T14:02:50Z</time>
      </trkpt>
      <trkpt lat="48.52242" lon="7.17523">
        <ele>810.24097</ele>
        <time>2024-10-10T14:02:55Z</time>
      </trkpt>
      <trkpt lat="48.52246" lon="7.17528">
        <ele>810.24097</ele>
        <time>2024-10-10T14:03:00Z</time>
      </trkpt>
      <trkpt lat="48.5225" lon="7.17532">
        <ele>810.24097</ele>
        <time>2024-10-10T14:03:05Z</time>
      </trkpt>
      <trkpt lat="48.52255" lon="7.17535">
        <ele>810.24097</ele>
        <time>2024-10-10T14:03:10Z</time>
      </trkpt>
      <trkpt lat="48.52259" lon="7.1754">
        <ele>810.24097</ele>
        <time>2024-10-10T14:03:15Z</time>
      </trkpt>
      <trkpt lat="48.52262" lon="7.17545">
        <ele>810.24097</ele>
        <time>2024-10-10T14:03:20Z</time>
      </trkpt>
      <trkpt lat="48.52267" lon="7.1755">
        <ele>810.24097</ele>
        <time>2024-10-10T14:03:25Z</time>
      </trkpt>
      <trkpt lat="48.52271" lon="7.17554">
        <ele>810.24097</ele>
        <time>2024-10-10T14:03:29Z</time>
      </trkpt>
      <trkpt lat="48.52275" lon="7.17558">
        <ele>810.24097</ele>
        <time>2024-10-10T14:03:33Z</time>
      </trkpt>
      <trkpt lat="48.5228" lon="7.17562">
        <ele>810.24097</ele>
        <time>2024-10-10T14:03:37Z</time>
      </trkpt>
      <trkpt lat="48.52284" lon="7.17566">
        <ele>810.24097</ele>
        <time>2024-10-10T14:03:42Z</time>
      </trkpt>
      <trkpt lat="48.52288" lon="7.17571">
        <ele>810.24097</ele>
        <time>2024-10-10T14:03:47Z</time>
      </trkpt>
      <trkpt lat="48.52293" lon="7.17575">
        <ele>810.24097</ele>
        <time>2024-10-10T14:03:52Z</time>
      </trkpt>
      <trkpt lat="48.52298" lon="7.17578">
        <ele>810.24097</ele>
        <time>2024-10-10T14:03:57Z</time>
      </trkpt>
      <trkpt lat="48.52302" lon="7.17581">
        <ele>810.24097</ele>
        <time>2024-10-10T14:04:03Z</time>
      </trkpt>
      <trkpt lat="48.52306" lon="7.17587">
        <ele>810.24097</ele>
        <time>2024-10-10T14:04:07Z</time>
      </trkpt>
      <trkpt lat="48.52311" lon="7.17591">
        <ele>810.24097</ele>
        <time>2024-10-10T14:04:12Z</time>
      </trkpt>
      <trkpt lat="48.52316" lon="7.17593">
        <ele>810.24097</ele>
        <time>2024-10-10T14:04:16Z</time>
      </trkpt>
      <trkpt lat="48.5232" lon="7.17596">
        <ele>810.24097</ele>
        <time>2024-10-10T14:04:21Z</time>
      </trkpt>
      <trkpt lat="48.52324" lon="7.17599">
        <ele>810.24097</ele>
        <time>2024-10-10T14:04:27Z</time>
      </trkpt>
      <trkpt lat="48.52329" lon="7.17602">
        <ele>810.24097</ele>
        <time>2024-10-10T14:04:35Z</time>
      </trkpt>
      <trkpt lat="48.52335" lon="7.17603">
        <ele>810.24097</ele>
        <time>2024-10-10T14:04:40Z</time>
      </trkpt>
      <trkpt lat="48.52339" lon="7.17605">
        <ele>810.24097</ele>
        <time>2024-10-10T14:04:44Z</time>
      </trkpt>
      <trkpt lat="48.52343" lon="7.17607">
        <ele>810.24097</ele>
        <time>2024-10-10T14:04:48Z</time>
      </trkpt>
      <trkpt lat="48.52348" lon="7.1761">
        <ele>810.24097</ele>
        <time>2024-10-10T14:04:51Z</time>
      </trkpt>
      <trkpt lat="48.52353" lon="7.17614">
        <ele>810.24097</ele>
        <time>2024-10-10T14:04:57Z</time>
      </trkpt>
      <trkpt lat="48.52358" lon="7.17616">
        <ele>810.24097</ele>
        <time>2024-10-10T14:05:01Z</time>
      </trkpt>
      <trkpt lat="48.52363" lon="7.17619">
        <ele>810.24097</ele>
        <time>2024-10-10T14:05:09Z</time>
      </trkpt>
      <trkpt lat="48.52369" lon="7.17621">
        <ele>810.24097</ele>
        <time>2024-10-10T14:05:14Z</time>
      </trkpt>
      <trkpt lat="48.52373" lon="7.17624">
        <ele>810.24097</ele>
        <time>2024-10-10T14:05:20Z</time>
      </trkpt>
      <trkpt lat="48.52377" lon="7.17627">
        <ele>810.24097</ele>
        <time>2024-10-10T14:05:25Z</time>
      </trkpt>
      <trkpt lat="48.52382" lon="7.17628">
        <ele>810.24097</ele>
        <time>2024-10-10T14:05:29Z</time>
      </trkpt>
      <trkpt lat="48.52387" lon="7.1763">
        <ele>810.24097</ele>
        <time>2024-10-10T14:05:34Z</time>
      </trkpt>
      <trkpt lat="48.52391" lon="7.17632">
        <ele>810.24097</ele>
        <time>2024-10-10T14:05:39Z</time>
      </trkpt>
      <trkpt lat="48.52396" lon="7.17634">
        <ele>810.24097</ele>
        <time>2024-10-10T14:05:43Z</time>
      </trkpt>
      <trkpt lat="48.524" lon="7.17634">
        <ele>810.24097</ele>
        <time>2024-10-10T14:05:49Z</time>
      </trkpt>
      <trkpt lat="48.52405" lon="7.17634">
        <ele>810.24097</ele>
        <time>2024-10-10T14:05:55Z</time>
      </trkpt>
      <trkpt lat="48.5241" lon="7.17632">
        <ele>799.6639</ele>
        <time>2024-10-10T14:06:00Z</time>
      </trkpt>
      <trkpt lat="48.52414" lon="7.17629">
        <ele>799.6639</ele>
        <time>2024-10-10T14:06:05Z</time>
      </trkpt>
      <trkpt lat="48.52419" lon="7.17624">
        <ele>799.6639</ele>
        <time>2024-10-10T14:06:12Z</time>
      </trkpt>
      <trkpt lat="48.52424" lon="7.17618">
        <ele>799.6639</ele>
        <time>2024-10-10T14:06:17Z</time>
      </trkpt>
      <trkpt lat="48.52428" lon="7.17616">
        <ele>799.6639</ele>
        <time>2024-10-10T14:06:21Z</time>
      </trkpt>
      <trkpt lat="48.52432" lon="7.17612">
        <ele>799.6639</ele>
        <time>2024-10-10T14:06:25Z</time>
      </trkpt>
      <trkpt lat="48.52436" lon="7.17606">
        <ele>799.6639</ele>
        <time>2024-10-10T14:06:31Z</time>
      </trkpt>
      <trkpt lat="48.52438" lon="7.176">
        <ele>799.6639</ele>
        <time>2024-10-10T14:06:39Z</time>
      </trkpt>
      <trkpt lat="48.52442" lon="7.17596">
        <ele>799.6639</ele>
        <time>2024-10-10T14:06:44Z</time>
      </trkpt>
      <trkpt lat="48.52445" lon="7.1759">
        <ele>799.6639</ele>
        <time>2024-10-10T14:06:49Z</time>
      </trkpt>
      <trkpt lat="48.52449" lon="7.17586">
        <ele>799.6639</ele>
        <time>2024-10-10T14:06:54Z</time>
      </trkpt>
      <trkpt lat="48.52452" lon="7.17581">
        <ele>799.6639</ele>
        <time>2024-10-10T14:06:59Z</time>
      </trkpt>
      <trkpt lat="48.52455" lon="7.17575">
        <ele>799.6639</ele>
        <time>2024-10-10T14:07:03Z</time>
      </trkpt>
      <trkpt lat="48.52458" lon="7.17569">
        <ele>799.6639</ele>
        <time>2024-10-10T14:07:07Z</time>
      </trkpt>
      <trkpt lat="48.52462" lon="7.17562">
        <ele>799.6639</ele>
        <time>2024-10-10T14:07:12Z</time>
      </trkpt>
      <trkpt lat="48.52466" lon="7.17557">
        <ele>799.6639</ele>
        <time>2024-10-10T14:07:16Z</time>
      </trkpt>
      <trkpt lat="48.52468" lon="7.17549">
        <ele>799.6639</ele>
        <time>2024-10-10T14:07:21Z</time>
      </trkpt>
      <trkpt lat="48.52472" lon="7.17544">
        <ele>799.6639</ele>
        <time>2024-10-10T14:07:26Z</time>
      </trkpt>
      <trkpt lat="48.52474" lon="7.17538">
        <ele>799.6639</ele>
        <time>2024-10-10T14:07:32Z</time>
      </trkpt>
      <trkpt lat="48.52475" lon="7.17531">
        <ele>799.6639</ele>
        <time>2024-10-10T14:07:39Z</time>
      </trkpt>
      <trkpt lat="48.5248" lon="7.17525">
        <ele>799.6639</ele>
        <time>2024-10-10T14:07:46Z</time>
      </trkpt>
      <trkpt lat="48.52484" lon="7.17519">
        <ele>799.6639</ele>
        <time>2024-10-10T14:07:56Z</time>
      </trkpt>
      <trkpt lat="48.52485" lon="7.17512">
        <ele>799.6639</ele>
        <time>2024-10-10T14:08:00Z</time>
      </trkpt>
      <trkpt lat="48.52489" lon="7.17506">
        <ele>799.6639</ele>
        <time>2024-10-10T14:08:05Z</time>
      </trkpt>
      <trkpt lat="48.52488" lon="7.17498">
        <ele>799.6639</ele>
        <time>2024-10-10T14:08:10Z</time>
      </trkpt>
      <trkpt lat="48.52489" lon="7.1749">
        <ele>799.6639</ele>
        <time>2024-10-10T14:08:14Z</time>
      </trkpt>
      <trkpt lat="48.52491" lon="7.17483">
        <ele>799.6639</ele>
        <time>2024-10-10T14:08:18Z</time>
      </trkpt>
      <trkpt lat="48.52494" lon="7.17477">
        <ele>799.6639</ele>
        <time>2024-10-10T14:08:24Z</time>
      </trkpt>
      <trkpt lat="48.52497" lon="7.17472">
        <ele>799.6639</ele>
        <time>2024-10-10T14:08:29Z</time>
      </trkpt>
      <trkpt lat="48.52499" lon="7.17465">
        <ele>789.01984</ele>
        <time>2024-10-10T14:08:35Z</time>
      </trkpt>
      <trkpt lat="48.52502" lon="7.17458">
        <ele>789.01984</ele>
        <time>2024-10-10T14:08:40Z</time>
      </trkpt>
      <trkpt lat="48.52503" lon="7.17451">
        <ele>789.01984</ele>
        <time>2024-10-10T14:08:45Z</time>
      </trkpt>
      <trkpt lat="48.52505" lon="7.17443">
        <ele>789.01984</ele>
        <time>2024-10-10T14:08:52Z</time>
      </trkpt>
      <trkpt lat="48.52506" lon="7.17435">
        <ele>789.01984</ele>
        <time>2024-10-10T14:08:58Z</time>
      </trkpt>
      <trkpt lat="48.52506" lon="7.17428">
        <ele>789.01984</ele>
        <time>2024-10-10T14:09:02Z</time>
      </trkpt>
      <trkpt lat="48.52507" lon="7.17421">
        <ele>789.01984</ele>
        <time>2024-10-10T14:09:07Z</time>
      </trkpt>
      <trkpt lat="48.52506" lon="7.17414">
        <ele>789.01984</ele>
        <time>2024-10-10T14:09:13Z</time>
      </trkpt>
      <trkpt lat="48.52507" lon="7.17406">
        <ele>789.01984</ele>
        <time>2024-10-10T14:09:18Z</time>
      </trkpt>
      <trkpt lat="48.52506" lon="7.17398">
        <ele>789.01984</ele>
        <time>2024-10-10T14:09:21Z</time>
      </trkpt>
      <trkpt lat="48.52508" lon="7.1739">
        <ele>789.01984</ele>
        <time>2024-10-10T14:09:27Z</time>
      </trkpt>
      <trkpt lat="48.52508" lon="7.17383">
        <ele>789.01984</ele>
        <time>2024-10-10T14:09:34Z</time>
      </trkpt>
      <trkpt lat="48.5251" lon="7.17377">
        <ele>789.01984</ele>
        <time>2024-10-10T14:09:39Z</time>
      </trkpt>
      <trkpt lat="48.52513" lon="7.17371">
        <ele>789.01984</ele>
        <time>2024-10-10T14:09:43Z</time>
      </trkpt>
      <trkpt lat="48.52514" lon="7.17364">
        <ele>789.01984</ele>
        <time>2024-10-10T14:09:48Z</time>
      </trkpt>
      <trkpt lat="48.52512" lon="7.17357">
        <ele>778.71545</ele>
        <time>2024-10-10T14:10:13Z</time>
      </trkpt>
      <trkpt lat="48.52513" lon="7.1735">
        <ele>778.71545</ele>
        <time>2024-10-10T14:10:17Z</time>
      </trkpt>
      <trkpt lat="48.52514" lon="7.17344">
        <ele>778.71545</ele>
        <time>2024-10-10T14:10:22Z</time>
      </trkpt>
      <trkpt lat="48.52516" lon="7.17337">
        <ele>778.71545</ele>
        <time>2024-10-10T14:10:26Z</time>
      </trkpt>
      <trkpt lat="48.52515" lon="7.17329">
        <ele>778.71545</ele>
        <time>2024-10-10T14:10:31Z</time>
      </trkpt>
      <trkpt lat="48.52516" lon="7.17321">
        <ele>778.71545</ele>
        <time>2024-10-10T14:10:36Z</time>
      </trkpt>
      <trkpt lat="48.52517" lon="7.17313">
        <ele>778.71545</ele>
        <time>2024-10-10T14:10:42Z</time>
      </trkpt>
      <trkpt lat="48.52518" lon="7.17305">
        <ele>778.71545</ele>
        <time>2024-10-10T14:10:47Z</time>
      </trkpt>
      <trkpt lat="48.52517" lon="7.17297">
        <ele>778.71545</ele>
        <time>2024-10-10T14:10:51Z</time>
      </trkpt>
      <trkpt lat="48.52516" lon="7.1729">
        <ele>778.71545</ele>
        <time>2024-10-10T14:10:55Z</time>
      </trkpt>
      <trkpt lat="48.52515" lon="7.17283">
        <ele>778.71545</ele>
        <time>2024-10-10T14:11:00Z</time>
      </trkpt>
      <trkpt lat="48.52514" lon="7.17275">
        <ele>778.71545</ele>
        <time>2024-10-10T14:11:05Z</time>
      </trkpt>
      <trkpt lat="48.52514" lon="7.17268">
        <ele>778.71545</ele>
        <time>2024-10-10T14:11:11Z</time>
      </trkpt>
      <trkpt lat="48.52519" lon="7.17265">
        <ele>778.71545</ele>
        <time>2024-10-10T14:11:33Z</time>
      </trkpt>
      <trkpt lat="48.52521" lon="7.17273">
        <ele>778.71545</ele>
        <time>2024-10-10T14:12:42Z</time>
      </trkpt>
      <trkpt lat="48.52517" lon="7.17271">
        <ele>778.71545</ele>
        <time>2024-10-10T14:12:57Z</time>
      </trkpt>
      <trkpt lat="48.52516" lon="7.17264">
        <ele>778.71545</ele>
        <time>2024-10-10T14:13:25Z</time>
      </trkpt>
      <trkpt lat="48.52515" lon="7.17257">
        <ele>778.71545</ele>
        <time>2024-10-10T14:13:29Z</time>
      </trkpt>
      <trkpt lat="48.52514" lon="7.17248">
        <ele>778.71545</ele>
        <time>2024-10-10T14:13:36Z</time>
      </trkpt>
      <trkpt lat="48.52512" lon="7.17241">
        <ele>778.71545</ele>
        <time>2024-10-10T14:13:40Z</time>
      </trkpt>
      <trkpt lat="48.52512" lon="7.17233">
        <ele>778.71545</ele>
        <time>2024-10-10T14:13:46Z</time>
      </trkpt>
      <trkpt lat="48.52511" lon="7.17226">
        <ele>778.71545</ele>
        <time>2024-10-10T14:13:52Z</time>
      </trkpt>
      <trkpt lat="48.5251" lon="7.17218">
        <ele>778.71545</ele>
        <time>2024-10-10T14:13:57Z</time>
      </trkpt>
      <trkpt lat="48.52509" lon="7.17212">
        <ele>778.71545</ele>
        <time>2024-10-10T14:14:02Z</time>
      </trkpt>
      <trkpt lat="48.52509" lon="7.17205">
        <ele>778.71545</ele>
        <time>2024-10-10T14:14:07Z</time>
      </trkpt>
      <trkpt lat="48.52507" lon="7.17198">
        <ele>778.71545</ele>
        <time>2024-10-10T14:14:13Z</time>
      </trkpt>
      <trkpt lat="48.52505" lon="7.1719">
        <ele>778.71545</ele>
        <time>2024-10-10T14:14:18Z</time>
      </trkpt>
      <trkpt lat="48.52502" lon="7.17178">
        <ele>778.71545</ele>
        <time>2024-10-10T14:14:21Z</time>
      </trkpt>
      <trkpt lat="48.52501" lon="7.17171">
        <ele>778.71545</ele>
        <time>2024-10-10T14:14:29Z</time>
      </trkpt>
      <trkpt lat="48.52499" lon="7.17165">
        <ele>778.71545</ele>
        <time>2024-10-10T14:14:33Z</time>
      </trkpt>
      <trkpt lat="48.52498" lon="7.17157">
        <ele>778.71545</ele>
        <time>2024-10-10T14:14:38Z</time>
      </trkpt>
      <trkpt lat="48.52496" lon="7.1715">
        <ele>778.71545</ele>
        <time>2024-10-10T14:14:43Z</time>
      </trkpt>
      <trkpt lat="48.52494" lon="7.17144">
        <ele>778.71545</ele>
        <time>2024-10-10T14:14:48Z</time>
      </trkpt>
      <trkpt lat="48.5249" lon="7.1714">
        <ele>778.71545</ele>
        <time>2024-10-10T14:14:54Z</time>
      </trkpt>
      <trkpt lat="48.52488" lon="7.17134">
        <ele>778.71545</ele>
        <time>2024-10-10T14:14:57Z</time>
      </trkpt>
      <trkpt lat="48.52485" lon="7.17125">
        <ele>778.71545</ele>
        <time>2024-10-10T14:15:01Z</time>
      </trkpt>
      <trkpt lat="48.52482" lon="7.17119">
        <ele>778.71545</ele>
        <time>2024-10-10T14:15:05Z</time>
      </trkpt>
      <trkpt lat="48.5248" lon="7.17113">
        <ele>778.71545</ele>
        <time>2024-10-10T14:15:10Z</time>
      </trkpt>
      <trkpt lat="48.52478" lon="7.17105">
        <ele>778.71545</ele>
        <time>2024-10-10T14:15:14Z</time>
      </trkpt>
      <trkpt lat="48.52478" lon="7.17097">
        <ele>778.71545</ele>
        <time>2024-10-10T14:15:18Z</time>
      </trkpt>
      <trkpt lat="48.52477" lon="7.1709">
        <ele>778.71545</ele>
        <time>2024-10-10T14:15:24Z</time>
      </trkpt>
      <trkpt lat="48.52477" lon="7.17083">
        <ele>778.71545</ele>
        <time>2024-10-10T14:15:27Z</time>
      </trkpt>
      <trkpt lat="48.52476" lon="7.17074">
        <ele>778.71545</ele>
        <time>2024-10-10T14:15:32Z</time>
      </trkpt>
      <trkpt lat="48.52477" lon="7.17067">
        <ele>778.71545</ele>
        <time>2024-10-10T14:15:37Z</time>
      </trkpt>
      <trkpt lat="48.52479" lon="7.1706">
        <ele>778.71545</ele>
        <time>2024-10-10T14:15:42Z</time>
      </trkpt>
      <trkpt lat="48.52482" lon="7.17055">
        <ele>778.71545</ele>
        <time>2024-10-10T14:15:46Z</time>
      </trkpt>
      <trkpt lat="48.52486" lon="7.1705">
        <ele>778.71545</ele>
        <time>2024-10-10T14:15:50Z</time>
      </trkpt>
      <trkpt lat="48.52489" lon="7.17043">
        <ele>778.71545</ele>
        <time>2024-10-10T14:15:55Z</time>
      </trkpt>
      <trkpt lat="48.52494" lon="7.17039">
        <ele>778.71545</ele>
        <time>2024-10-10T14:15:59Z</time>
      </trkpt>
      <trkpt lat="48.52498" lon="7.17033">
        <ele>778.71545</ele>
        <time>2024-10-10T14:16:04Z</time>
      </trkpt>
      <trkpt lat="48.52503" lon="7.17029">
        <ele>778.71545</ele>
        <time>2024-10-10T14:16:09Z</time>
      </trkpt>
      <trkpt lat="48.52507" lon="7.17024">
        <ele>778.71545</ele>
        <time>2024-10-10T14:16:13Z</time>
      </trkpt>
      <trkpt lat="48.52512" lon="7.1702">
        <ele>778.71545</ele>
        <time>2024-10-10T14:16:18Z</time>
      </trkpt>
      <trkpt lat="48.52516" lon="7.17014">
        <ele>778.71545</ele>
        <time>2024-10-10T14:16:23Z</time>
      </trkpt>
      <trkpt lat="48.5252" lon="7.17009">
        <ele>778.71545</ele>
        <time>2024-10-10T14:16:27Z</time>
      </trkpt>
      <trkpt lat="48.52522" lon="7.17003">
        <ele>778.71545</ele>
        <time>2024-10-10T14:16:32Z</time>
      </trkpt>
      <trkpt lat="48.52526" lon="7.16998">
        <ele>778.71545</ele>
        <time>2024-10-10T14:16:37Z</time>
      </trkpt>
      <trkpt lat="48.52531" lon="7.16994">
        <ele>778.71545</ele>
        <time>2024-10-10T14:16:42Z</time>
      </trkpt>
      <trkpt lat="48.52536" lon="7.16989">
        <ele>778.71545</ele>
        <time>2024-10-10T14:16:47Z</time>
      </trkpt>
      <trkpt lat="48.5254" lon="7.16985">
        <ele>778.71545</ele>
        <time>2024-10-10T14:16:52Z</time>
      </trkpt>
      <trkpt lat="48.52544" lon="7.1698">
        <ele>778.71545</ele>
        <time>2024-10-10T14:16:57Z</time>
      </trkpt>
      <trkpt lat="48.52549" lon="7.16975">
        <ele>778.71545</ele>
        <time>2024-10-10T14:17:02Z</time>
      </trkpt>
      <trkpt lat="48.52553" lon="7.16971">
        <ele>778.71545</ele>
        <time>2024-10-10T14:17:06Z</time>
      </trkpt>
      <trkpt lat="48.52558" lon="7.16968">
        <ele>778.71545</ele>
        <time>2024-10-10T14:17:11Z</time>
      </trkpt>
      <trkpt lat="48.52562" lon="7.16964">
        <ele>778.71545</ele>
        <time>2024-10-10T14:17:15Z</time>
      </trkpt>
      <trkpt lat="48.52566" lon="7.16961">
        <ele>778.71545</ele>
        <time>2024-10-10T14:17:19Z</time>
      </trkpt>
      <trkpt lat="48.52571" lon="7.16956">
        <ele>778.71545</ele>
        <time>2024-10-10T14:17:24Z</time>
      </trkpt>
      <trkpt lat="48.52575" lon="7.16952">
        <ele>778.71545</ele>
        <time>2024-10-10T14:17:28Z</time>
      </trkpt>
      <trkpt lat="48.52578" lon="7.16947">
        <ele>778.71545</ele>
        <time>2024-10-10T14:17:32Z</time>
      </trkpt>
      <trkpt lat="48.52582" lon="7.16942">
        <ele>778.71545</ele>
        <time>2024-10-10T14:17:37Z</time>
      </trkpt>
      <trkpt lat="48.52585" lon="7.16936">
        <ele>778.71545</ele>
        <time>2024-10-10T14:17:42Z</time>
      </trkpt>
      <trkpt lat="48.52588" lon="7.16931">
        <ele>778.71545</ele>
        <time>2024-10-10T14:17:46Z</time>
      </trkpt>
      <trkpt lat="48.52592" lon="7.16926">
        <ele>778.71545</ele>
        <time>2024-10-10T14:17:51Z</time>
      </trkpt>
      <trkpt lat="48.52596" lon="7.16923">
        <ele>778.71545</ele>
        <time>2024-10-10T14:17:55Z</time>
      </trkpt>
      <trkpt lat="48.52601" lon="7.16921">
        <ele>778.71545</ele>
        <time>2024-10-10T14:17:59Z</time>
      </trkpt>
      <trkpt lat="48.52605" lon="7.16917">
        <ele>778.71545</ele>
        <time>2024-10-10T14:18:03Z</time>
      </trkpt>
      <trkpt lat="48.52609" lon="7.16913">
        <ele>778.71545</ele>
        <time>2024-10-10T14:18:08Z</time>
      </trkpt>
      <trkpt lat="48.52613" lon="7.1691">
        <ele>778.71545</ele>
        <time>2024-10-10T14:18:12Z</time>
      </trkpt>
      <trkpt lat="48.52617" lon="7.16906">
        <ele>778.71545</ele>
        <time>2024-10-10T14:18:17Z</time>
      </trkpt>
      <trkpt lat="48.52622" lon="7.16902">
        <ele>778.71545</ele>
        <time>2024-10-10T14:18:22Z</time>
      </trkpt>
      <trkpt lat="48.52626" lon="7.169">
        <ele>778.71545</ele>
        <time>2024-10-10T14:18:26Z</time>
      </trkpt>
      <trkpt lat="48.52631" lon="7.16895">
        <ele>778.71545</ele>
        <time>2024-10-10T14:18:31Z</time>
      </trkpt>
      <trkpt lat="48.52635" lon="7.16892">
        <ele>778.71545</ele>
        <time>2024-10-10T14:18:36Z</time>
      </trkpt>
      <trkpt lat="48.52641" lon="7.1689">
        <ele>778.71545</ele>
        <time>2024-10-10T14:18:41Z</time>
      </trkpt>
      <trkpt lat="48.52645" lon="7.16887">
        <ele>778.71545</ele>
        <time>2024-10-10T14:18:45Z</time>
      </trkpt>
      <trkpt lat="48.5265" lon="7.16884">
        <ele>778.71545</ele>
        <time>2024-10-10T14:18:49Z</time>
      </trkpt>
      <trkpt lat="48.52654" lon="7.16882">
        <ele>778.71545</ele>
        <time>2024-10-10T14:18:53Z</time>
      </trkpt>
      <trkpt lat="48.52659" lon="7.16878">
        <ele>778.71545</ele>
        <time>2024-10-10T14:18:57Z</time>
      </trkpt>
      <trkpt lat="48.52662" lon="7.16874">
        <ele>778.71545</ele>
        <time>2024-10-10T14:19:01Z</time>
      </trkpt>
      <trkpt lat="48.52667" lon="7.16871">
        <ele>778.71545</ele>
        <time>2024-10-10T14:19:05Z</time>
      </trkpt>
      <trkpt lat="48.52671" lon="7.16868">
        <ele>778.71545</ele>
        <time>2024-10-10T14:19:10Z</time>
      </trkpt>
      <trkpt lat="48.52676" lon="7.16864">
        <ele>778.71545</ele>
        <time>2024-10-10T14:19:15Z</time>
      </trkpt>
      <trkpt lat="48.5268" lon="7.1686">
        <ele>778.71545</ele>
        <time>2024-10-10T14:19:20Z</time>
      </trkpt>
      <trkpt lat="48.52685" lon="7.16858">
        <ele>778.71545</ele>
        <time>2024-10-10T14:19:24Z</time>
      </trkpt>
      <trkpt lat="48.5269" lon="7.1686">
        <ele>778.71545</ele>
        <time>2024-10-10T14:19:28Z</time>
      </trkpt>
      <trkpt lat="48.52696" lon="7.16858">
        <ele>778.71545</ele>
        <time>2024-10-10T14:19:33Z</time>
      </trkpt>
      <trkpt lat="48.527" lon="7.16854">
        <ele>778.71545</ele>
        <time>2024-10-10T14:19:38Z</time>
      </trkpt>
      <trkpt lat="48.52705" lon="7.16854">
        <ele>778.71545</ele>
        <time>2024-10-10T14:19:42Z</time>
      </trkpt>
      <trkpt lat="48.5271" lon="7.16854">
        <ele>778.71545</ele>
        <time>2024-10-10T14:19:46Z</time>
      </trkpt>
      <trkpt lat="48.52715" lon="7.16853">
        <ele>778.71545</ele>
        <time>2024-10-10T14:19:51Z</time>
      </trkpt>
      <trkpt lat="48.52721" lon="7.16854">
        <ele>778.71545</ele>
        <time>2024-10-10T14:19:56Z</time>
      </trkpt>
      <trkpt lat="48.52725" lon="7.16851">
        <ele>778.71545</ele>
        <time>2024-10-10T14:20:00Z</time>
      </trkpt>
      <trkpt lat="48.5273" lon="7.16851">
        <ele>778.71545</ele>
        <time>2024-10-10T14:20:06Z</time>
      </trkpt>
      <trkpt lat="48.52735" lon="7.16851">
        <ele>778.71545</ele>
        <time>2024-10-10T14:20:10Z</time>
      </trkpt>
      <trkpt lat="48.5274" lon="7.16853">
        <ele>778.71545</ele>
        <time>2024-10-10T14:20:14Z</time>
      </trkpt>
      <trkpt lat="48.52744" lon="7.16852">
        <ele>778.71545</ele>
        <time>2024-10-10T14:20:18Z</time>
      </trkpt>
      <trkpt lat="48.5275" lon="7.16851">
        <ele>789.083</ele>
        <time>2024-10-10T14:20:23Z</time>
      </trkpt>
      <trkpt lat="48.52754" lon="7.16849">
        <ele>789.083</ele>
        <time>2024-10-10T14:20:27Z</time>
      </trkpt>
      <trkpt lat="48.52758" lon="7.16845">
        <ele>789.083</ele>
        <time>2024-10-10T14:20:32Z</time>
      </trkpt>
      <trkpt lat="48.52762" lon="7.1684">
        <ele>789.083</ele>
        <time>2024-10-10T14:20:38Z</time>
      </trkpt>
      <trkpt lat="48.52765" lon="7.16834">
        <ele>789.083</ele>
        <time>2024-10-10T14:20:44Z</time>
      </trkpt>
      <trkpt lat="48.52767" lon="7.16827">
        <ele>789.083</ele>
        <time>2024-10-10T14:20:53Z</time>
      </trkpt>
      <trkpt lat="48.52768" lon="7.1682">
        <ele>789.083</ele>
        <time>2024-10-10T14:21:27Z</time>
      </trkpt>
      <trkpt lat="48.52767" lon="7.16813">
        <ele>789.083</ele>
        <time>2024-10-10T14:21:31Z</time>
      </trkpt>
      <trkpt lat="48.52766" lon="7.16805">
        <ele>789.083</ele>
        <time>2024-10-10T14:21:35Z</time>
      </trkpt>
      <trkpt lat="48.52763" lon="7.16799">
        <ele>789.083</ele>
        <time>2024-10-10T14:21:42Z</time>
      </trkpt>
      <trkpt lat="48.5276" lon="7.16793">
        <ele>789.083</ele>
        <time>2024-10-10T14:21:48Z</time>
      </trkpt>
      <trkpt lat="48.52758" lon="7.16787">
        <ele>789.083</ele>
        <time>2024-10-10T14:21:55Z</time>
      </trkpt>
      <trkpt lat="48.52758" lon="7.1678">
        <ele>789.083</ele>
        <time>2024-10-10T14:22:01Z</time>
      </trkpt>
      <trkpt lat="48.52756" lon="7.16774">
        <ele>789.083</ele>
        <time>2024-10-10T14:22:08Z</time>
      </trkpt>
      <trkpt lat="48.5275" lon="7.1677">
        <ele>789.083</ele>
        <time>2024-10-10T14:22:12Z</time>
      </trkpt>
      <trkpt lat="48.52745" lon="7.16769">
        <ele>789.083</ele>
        <time>2024-10-10T14:22:14Z</time>
      </trkpt>
      <trkpt lat="48.52742" lon="7.16762">
        <ele>789.083</ele>
        <time>2024-10-10T14:22:19Z</time>
      </trkpt>
      <trkpt lat="48.52739" lon="7.16758">
        <ele>789.083</ele>
        <time>2024-10-10T14:22:24Z</time>
      </trkpt>
      <trkpt lat="48.52735" lon="7.16752">
        <ele>789.083</ele>
        <time>2024-10-10T14:22:30Z</time>
      </trkpt>
      <trkpt lat="48.52731" lon="7.16747">
        <ele>789.083</ele>
        <time>2024-10-10T14:22:35Z</time>
      </trkpt>
      <trkpt lat="48.52734" lon="7.16752">
        <ele>789.083</ele>
        <time>2024-10-10T14:23:27Z</time>
      </trkpt>
      <trkpt lat="48.52729" lon="7.16751">
        <ele>789.083</ele>
        <time>2024-10-10T14:24:32Z</time>
      </trkpt>
      <trkpt lat="48.52725" lon="7.16748">
        <ele>789.083</ele>
        <time>2024-10-10T14:24:35Z</time>
      </trkpt>
      <trkpt lat="48.5272" lon="7.16745">
        <ele>789.083</ele>
        <time>2024-10-10T14:24:39Z</time>
      </trkpt>
      <trkpt lat="48.52716" lon="7.16742">
        <ele>789.083</ele>
        <time>2024-10-10T14:24:43Z</time>
      </trkpt>
      <trkpt lat="48.52712" lon="7.16737">
        <ele>789.083</ele>
        <time>2024-10-10T14:24:48Z</time>
      </trkpt>
      <trkpt lat="48.52708" lon="7.16733">
        <ele>789.083</ele>
        <time>2024-10-10T14:24:52Z</time>
      </trkpt>
      <trkpt lat="48.52704" lon="7.16729">
        <ele>789.083</ele>
        <time>2024-10-10T14:24:56Z</time>
      </trkpt>
      <trkpt lat="48.52699" lon="7.16726">
        <ele>789.083</ele>
        <time>2024-10-10T14:25:02Z</time>
      </trkpt>
      <trkpt lat="48.52695" lon="7.16722">
        <ele>789.083</ele>
        <time>2024-10-10T14:25:07Z</time>
      </trkpt>
      <trkpt lat="48.5269" lon="7.16718">
        <ele>789.083</ele>
        <time>2024-10-10T14:25:12Z</time>
      </trkpt>
      <trkpt lat="48.52686" lon="7.16714">
        <ele>789.083</ele>
        <time>2024-10-10T14:25:17Z</time>
      </trkpt>
      <trkpt lat="48.52681" lon="7.16711">
        <ele>789.083</ele>
        <time>2024-10-10T14:25:20Z</time>
      </trkpt>
      <trkpt lat="48.52676" lon="7.16708">
        <ele>789.083</ele>
        <time>2024-10-10T14:25:25Z</time>
      </trkpt>
      <trkpt lat="48.52671" lon="7.16705">
        <ele>789.083</ele>
        <time>2024-10-10T14:25:30Z</time>
      </trkpt>
      <trkpt lat="48.52667" lon="7.16703">
        <ele>789.083</ele>
        <time>2024-10-10T14:25:35Z</time>
      </trkpt>
      <trkpt lat="48.52662" lon="7.16701">
        <ele>789.083</ele>
        <time>2024-10-10T14:25:40Z</time>
      </trkpt>
      <trkpt lat="48.52657" lon="7.16699">
        <ele>789.083</ele>
        <time>2024-10-10T14:25:45Z</time>
      </trkpt>
      <trkpt lat="48.52652" lon="7.16697">
        <ele>789.083</ele>
        <time>2024-10-10T14:25:50Z</time>
      </trkpt>
      <trkpt lat="48.52647" lon="7.16695">
        <ele>789.083</ele>
        <time>2024-10-10T14:25:55Z</time>
      </trkpt>
      <trkpt lat="48.52642" lon="7.16694">
        <ele>789.083</ele>
        <time>2024-10-10T14:26:00Z</time>
      </trkpt>
      <trkpt lat="48.52637" lon="7.16692">
        <ele>789.083</ele>
        <time>2024-10-10T14:26:05Z</time>
      </trkpt>
      <trkpt lat="48.52631" lon="7.1669">
        <ele>799.49133</ele>
        <time>2024-10-10T14:26:10Z</time>
      </trkpt>
      <trkpt lat="48.52626" lon="7.16688">
        <ele>799.49133</ele>
        <time>2024-10-10T14:26:15Z</time>
      </trkpt>
      <trkpt lat="48.52621" lon="7.16686">
        <ele>799.49133</ele>
        <time>2024-10-10T14:26:20Z</time>
      </trkpt>
      <trkpt lat="48.52617" lon="7.16685">
        <ele>799.49133</ele>
        <time>2024-10-10T14:26:25Z</time>
      </trkpt>
      <trkpt lat="48.52611" lon="7.16684">
        <ele>799.49133</ele>
        <time>2024-10-10T14:26:30Z</time>
      </trkpt>
      <trkpt lat="48.52607" lon="7.16682">
        <ele>799.49133</ele>
        <time>2024-10-10T14:26:34Z</time>
      </trkpt>
      <trkpt lat="48.52601" lon="7.16682">
        <ele>799.49133</ele>
        <time>2024-10-10T14:26:39Z</time>
      </trkpt>
      <trkpt lat="48.52596" lon="7.16681">
        <ele>799.49133</ele>
        <time>2024-10-10T14:26:44Z</time>
      </trkpt>
      <trkpt lat="48.5259" lon="7.16681">
        <ele>799.49133</ele>
        <time>2024-10-10T14:26:49Z</time>
      </trkpt>
      <trkpt lat="48.52585" lon="7.16681">
        <ele>799.49133</ele>
        <time>2024-10-10T14:26:55Z</time>
      </trkpt>
      <trkpt lat="48.5258" lon="7.16682">
        <ele>799.49133</ele>
        <time>2024-10-10T14:27:00Z</time>
      </trkpt>
      <trkpt lat="48.52575" lon="7.16682">
        <ele>799.49133</ele>
        <time>2024-10-10T14:27:06Z</time>
      </trkpt>
      <trkpt lat="48.5257" lon="7.16683">
        <ele>799.49133</ele>
        <time>2024-10-10T14:27:10Z</time>
      </trkpt>
      <trkpt lat="48.52565" lon="7.16684">
        <ele>799.49133</ele>
        <time>2024-10-10T14:27:16Z</time>
      </trkpt>
      <trkpt lat="48.52561" lon="7.16685">
        <ele>799.49133</ele>
        <time>2024-10-10T14:27:20Z</time>
      </trkpt>
      <trkpt lat="48.52556" lon="7.16686">
        <ele>799.49133</ele>
        <time>2024-10-10T14:27:26Z</time>
      </trkpt>
      <trkpt lat="48.52551" lon="7.16687">
        <ele>799.49133</ele>
        <time>2024-10-10T14:27:31Z</time>
      </trkpt>
      <trkpt lat="48.52546" lon="7.16688">
        <ele>799.49133</ele>
        <time>2024-10-10T14:27:37Z</time>
      </trkpt>
      <trkpt lat="48.52541" lon="7.16689">
        <ele>799.49133</ele>
        <time>2024-10-10T14:27:42Z</time>
      </trkpt>
      <trkpt lat="48.52537" lon="7.1669">
        <ele>799.49133</ele>
        <time>2024-10-10T14:27:48Z</time>
      </trkpt>
      <trkpt lat="48.52532" lon="7.16691">
        <ele>799.49133</ele>
        <time>2024-10-10T14:27:53Z</time>
      </trkpt>
      <trkpt lat="48.52527" lon="7.16692">
        <ele>799.49133</ele>
        <time>2024-10-10T14:27:58Z</time>
      </trkpt>
      <trkpt lat="48.52522" lon="7.16694">
        <ele>799.49133</ele>
        <time>2024-10-10T14:28:03Z</time>
      </trkpt>
      <trkpt lat="48.52517" lon="7.16695">
        <ele>799.49133</ele>
        <time>2024-10-10T14:28:08Z</time>
      </trkpt>
      <trkpt lat="48.52512" lon="7.16696">
        <ele>799.49133</ele>
        <time>2024-10-10T14:28:13Z</time>
      </trkpt>
      <trkpt lat="48.52507" lon="7.16697">
        <ele>799.49133</ele>
        <time>2024-10-10T14:28:18Z</time>
      </trkpt>
      <trkpt lat="48.52501" lon="7.16699">
        <ele>799.49133</ele>
        <time>2024-10-10T14:28:23Z</time>
      </trkpt>
      <trkpt lat="48.52496" lon="7.16699">
        <ele>810.5139</ele>
        <time>2024-10-10T14:28:28Z</time>
      </trkpt>
      <trkpt lat="48.52492" lon="7.167">
        <ele>810.5139</ele>
        <time>2024-10-10T14:28:33Z</time>
      </trkpt>
      <trkpt lat="48.52487" lon="7.16702">
        <ele>810.5139</ele>
        <time>2024-10-10T14:28:38Z</time>
      </trkpt>
      <trkpt lat="48.52482" lon="7.16703">
        <ele>810.5139</ele>
        <time>2024-10-10T14:28:44Z</time>
      </trkpt>
      <trkpt lat="48.52477" lon="7.16703">
        <ele>810.5139</ele>
        <time>2024-10-10T14:28:49Z</time>
      </trkpt>
      <trkpt lat="48.52473" lon="7.16705">
        <ele>810.5139</ele>
        <time>2024-10-10T14:28:53Z</time>
      </trkpt>
      <trkpt lat="48.52468" lon="7.16706">
        <ele>810.5139</ele>
        <time>2024-10-10T14:28:58Z</time>
      </trkpt>
      <trkpt lat="48.52463" lon="7.16707">
        <ele>810.5139</ele>
        <time>2024-10-10T14:29:03Z</time>
      </trkpt>
      <trkpt lat="48.52458" lon="7.16708">
        <ele>810.5139</ele>
        <time>2024-10-10T14:29:09Z</time>
      </trkpt>
      <trkpt lat="48.52453" lon="7.1671">
        <ele>810.5139</ele>
        <time>2024-10-10T14:29:13Z</time>
      </trkpt>
      <trkpt lat="48.52448" lon="7.16713">
        <ele>810.5139</ele>
        <time>2024-10-10T14:29:19Z</time>
      </trkpt>
      <trkpt lat="48.52442" lon="7.16715">
        <ele>810.5139</ele>
        <time>2024-10-10T14:29:24Z</time>
      </trkpt>
      <trkpt lat="48.52437" lon="7.16717">
        <ele>810.5139</ele>
        <time>2024-10-10T14:29:29Z</time>
      </trkpt>
      <trkpt lat="48.52433" lon="7.1672">
        <ele>810.5139</ele>
        <time>2024-10-10T14:29:34Z</time>
      </trkpt>
      <trkpt lat="48.52428" lon="7.16721">
        <ele>810.5139</ele>
        <time>2024-10-10T14:29:39Z</time>
      </trkpt>
      <trkpt lat="48.52423" lon="7.16725">
        <ele>810.5139</ele>
        <time>2024-10-10T14:29:44Z</time>
      </trkpt>
      <trkpt lat="48.52418" lon="7.16728">
        <ele>810.5139</ele>
        <time>2024-10-10T14:29:49Z</time>
      </trkpt>
      <trkpt lat="48.52412" lon="7.1673">
        <ele>810.5139</ele>
        <time>2024-10-10T14:29:55Z</time>
      </trkpt>
      <trkpt lat="48.52408" lon="7.16732">
        <ele>810.5139</ele>
        <time>2024-10-10T14:30:00Z</time>
      </trkpt>
      <trkpt lat="48.52403" lon="7.16734">
        <ele>810.5139</ele>
        <time>2024-10-10T14:30:04Z</time>
      </trkpt>
      <trkpt lat="48.52399" lon="7.16736">
        <ele>810.5139</ele>
        <time>2024-10-10T14:30:09Z</time>
      </trkpt>
      <trkpt lat="48.52394" lon="7.16738">
        <ele>810.5139</ele>
        <time>2024-10-10T14:30:14Z</time>
      </trkpt>
      <trkpt lat="48.52389" lon="7.16741">
        <ele>810.5139</ele>
        <time>2024-10-10T14:30:20Z</time>
      </trkpt>
      <trkpt lat="48.52384" lon="7.16743">
        <ele>810.5139</ele>
        <time>2024-10-10T14:30:25Z</time>
      </trkpt>
      <trkpt lat="48.52379" lon="7.16745">
        <ele>810.5139</ele>
        <time>2024-10-10T14:30:31Z</time>
      </trkpt>
      <trkpt lat="48.52375" lon="7.16747">
        <ele>810.5139</ele>
        <time>2024-10-10T14:30:36Z</time>
      </trkpt>
      <trkpt lat="48.5237" lon="7.1675">
        <ele>810.5139</ele>
        <time>2024-10-10T14:30:42Z</time>
      </trkpt>
      <trkpt lat="48.52365" lon="7.16752">
        <ele>810.5139</ele>
        <time>2024-10-10T14:30:47Z</time>
      </trkpt>
      <trkpt lat="48.52361" lon="7.16755">
        <ele>810.5139</ele>
        <time>2024-10-10T14:30:52Z</time>
      </trkpt>
      <trkpt lat="48.52356" lon="7.16758">
        <ele>810.5139</ele>
        <time>2024-10-10T14:30:57Z</time>
      </trkpt>
      <trkpt lat="48.52351" lon="7.16762">
        <ele>810.5139</ele>
        <time>2024-10-10T14:31:02Z</time>
      </trkpt>
      <trkpt lat="48.52347" lon="7.16765">
        <ele>810.5139</ele>
        <time>2024-10-10T14:31:07Z</time>
      </trkpt>
      <trkpt lat="48.52342" lon="7.1677">
        <ele>810.5139</ele>
        <time>2024-10-10T14:31:13Z</time>
      </trkpt>
      <trkpt lat="48.52338" lon="7.16774">
        <ele>810.5139</ele>
        <time>2024-10-10T14:31:19Z</time>
      </trkpt>
      <trkpt lat="48.52334" lon="7.16779">
        <ele>810.5139</ele>
        <time>2024-10-10T14:31:24Z</time>
      </trkpt>
      <trkpt lat="48.52329" lon="7.16783">
        <ele>810.5139</ele>
        <time>2024-10-10T14:31:30Z</time>
      </trkpt>
      <trkpt lat="48.52325" lon="7.16786">
        <ele>810.5139</ele>
        <time>2024-10-10T14:31:36Z</time>
      </trkpt>
      <trkpt lat="48.52321" lon="7.1679">
        <ele>810.5139</ele>
        <time>2024-10-10T14:31:42Z</time>
      </trkpt>
      <trkpt lat="48.52316" lon="7.16794">
        <ele>810.5139</ele>
        <time>2024-10-10T14:31:47Z</time>
      </trkpt>
      <trkpt lat="48.52313" lon="7.168">
        <ele>810.5139</ele>
        <time>2024-10-10T14:31:53Z</time>
      </trkpt>
      <trkpt lat="48.52309" lon="7.16803">
        <ele>820.876</ele>
        <time>2024-10-10T14:31:58Z</time>
      </trkpt>
      <trkpt lat="48.52305" lon="7.16808">
        <ele>820.876</ele>
        <time>2024-10-10T14:32:03Z</time>
      </trkpt>
      <trkpt lat="48.52301" lon="7.16812">
        <ele>820.876</ele>
        <time>2024-10-10T14:32:07Z</time>
      </trkpt>
      <trkpt lat="48.52298" lon="7.16816">
        <ele>820.876</ele>
        <time>2024-10-10T14:32:11Z</time>
      </trkpt>
      <trkpt lat="48.52293" lon="7.16821">
        <ele>820.876</ele>
        <time>2024-10-10T14:32:16Z</time>
      </trkpt>
      <trkpt lat="48.5229" lon="7.16825">
        <ele>820.876</ele>
        <time>2024-10-10T14:32:22Z</time>
      </trkpt>
      <trkpt lat="48.52285" lon="7.1683">
        <ele>820.876</ele>
        <time>2024-10-10T14:32:27Z</time>
      </trkpt>
      <trkpt lat="48.52282" lon="7.16834">
        <ele>820.876</ele>
        <time>2024-10-10T14:32:32Z</time>
      </trkpt>
      <trkpt lat="48.52278" lon="7.16839">
        <ele>820.876</ele>
        <time>2024-10-10T14:32:37Z</time>
      </trkpt>
      <trkpt lat="48.52274" lon="7.16844">
        <ele>820.876</ele>
        <time>2024-10-10T14:32:42Z</time>
      </trkpt>
      <trkpt lat="48.5227" lon="7.16849">
        <ele>820.876</ele>
        <time>2024-10-10T14:32:47Z</time>
      </trkpt>
      <trkpt lat="48.52267" lon="7.16854">
        <ele>820.876</ele>
        <time>2024-10-10T14:32:52Z</time>
      </trkpt>
      <trkpt lat="48.52263" lon="7.16859">
        <ele>820.876</ele>
        <time>2024-10-10T14:32:58Z</time>
      </trkpt>
      <trkpt lat="48.52259" lon="7.16864">
        <ele>820.876</ele>
        <time>2024-10-10T14:33:04Z</time>
      </trkpt>
      <trkpt lat="48.52255" lon="7.16869">
        <ele>820.876</ele>
        <time>2024-10-10T14:33:09Z</time>
      </trkpt>
      <trkpt lat="48.52251" lon="7.16874">
        <ele>820.876</ele>
        <time>2024-10-10T14:33:15Z</time>
      </trkpt>
      <trkpt lat="48.52247" lon="7.1688">
        <ele>820.876</ele>
        <time>2024-10-10T14:33:20Z</time>
      </trkpt>
      <trkpt lat="48.52243" lon="7.16884">
        <ele>820.876</ele>
        <time>2024-10-10T14:33:25Z</time>
      </trkpt>
      <trkpt lat="48.52239" lon="7.16889">
        <ele>820.876</ele>
        <time>2024-10-10T14:33:30Z</time>
      </trkpt>
      <trkpt lat="48.52235" lon="7.16893">
        <ele>831.9813</ele>
        <time>2024-10-10T14:33:35Z</time>
      </trkpt>
      <trkpt lat="48.52232" lon="7.16897">
        <ele>831.9813</ele>
        <time>2024-10-10T14:33:39Z</time>
      </trkpt>
      <trkpt lat="48.52227" lon="7.16902">
        <ele>831.9813</ele>
        <time>2024-10-10T14:33:43Z</time>
      </trkpt>
      <trkpt lat="48.52224" lon="7.16906">
        <ele>831.9813</ele>
        <time>2024-10-10T14:33:47Z</time>
      </trkpt>
      <trkpt lat="48.52219" lon="7.16911">
        <ele>831.9813</ele>
        <time>2024-10-10T14:33:53Z</time>
      </trkpt>
      <trkpt lat="48.52215" lon="7.16916">
        <ele>831.9813</ele>
        <time>2024-10-10T14:33:58Z</time>
      </trkpt>
      <trkpt lat="48.52211" lon="7.1692">
        <ele>831.9813</ele>
        <time>2024-10-10T14:34:02Z</time>
      </trkpt>
      <trkpt lat="48.52207" lon="7.16924">
        <ele>831.9813</ele>
        <time>2024-10-10T14:34:09Z</time>
      </trkpt>
      <trkpt lat="48.52203" lon="7.16928">
        <ele>831.9813</ele>
        <time>2024-10-10T14:34:14Z</time>
      </trkpt>
      <trkpt lat="48.52198" lon="7.16932">
        <ele>831.9813</ele>
        <time>2024-10-10T14:34:19Z</time>
      </trkpt>
      <trkpt lat="48.52194" lon="7.16936">
        <ele>831.9813</ele>
        <time>2024-10-10T14:34:24Z</time>
      </trkpt>
      <trkpt lat="48.5219" lon="7.1694">
        <ele>831.9813</ele>
        <time>2024-10-10T14:34:29Z</time>
      </trkpt>
      <trkpt lat="48.52186" lon="7.16944">
        <ele>831.9813</ele>
        <time>2024-10-10T14:34:34Z</time>
      </trkpt>
      <trkpt lat="48.52182" lon="7.16948">
        <ele>831.9813</ele>
        <time>2024-10-10T14:34:38Z</time>
      </trkpt>
      <trkpt lat="48.52178" lon="7.16952">
        <ele>831.9813</ele>
        <time>2024-10-10T14:34:43Z</time>
      </trkpt>
      <trkpt lat="48.52174" lon="7.16956">
        <ele>831.9813</ele>
        <time>2024-10-10T14:34:47Z</time>
      </trkpt>
      <trkpt lat="48.5217" lon="7.1696">
        <ele>831.9813</ele>
        <time>2024-10-10T14:34:52Z</time>
      </trkpt>
      <trkpt lat="48.52166" lon="7.16964">
        <ele>831.9813</ele>
        <time>2024-10-10T14:34:56Z</time>
      </trkpt>
      <trkpt lat="48.52162" lon="7.16968">
        <ele>831.9813</ele>
        <time>2024-10-10T14:35:00Z</time>
      </trkpt>
      <trkpt lat="48.52158" lon="7.16972">
        <ele>831.9813</ele>
        <time>2024-10-10T14:35:04Z</time>
      </trkpt>
      <trkpt lat="48.52154" lon="7.16976">
        <ele>831.9813</ele>
        <time>2024-10-10T14:35:09Z</time>
      </trkpt>
      <trkpt lat="48.52149" lon="7.16981">
        <ele>831.9813</ele>
        <time>2024-10-10T14:35:14Z</time>
      </trkpt>
      <trkpt lat="48.52144" lon="7.16985">
        <ele>831.9813</ele>
        <time>2024-10-10T14:35:19Z</time>
      </trkpt>
      <trkpt lat="48.5214" lon="7.1699">
        <ele>831.9813</ele>
        <time>2024-10-10T14:35:24Z</time>
      </trkpt>
      <trkpt lat="48.52136" lon="7.16993">
        <ele>831.9813</ele>
        <time>2024-10-10T14:35:28Z</time>
      </trkpt>
      <trkpt lat="48.52131" lon="7.16996">
        <ele>831.9813</ele>
        <time>2024-10-10T14:35:33Z</time>
      </trkpt>
      <trkpt lat="48.52127" lon="7.16999">
        <ele>831.9813</ele>
        <time>2024-10-10T14:35:38Z</time>
      </trkpt>
      <trkpt lat="48.52122" lon="7.17002">
        <ele>831.9813</ele>
        <time>2024-10-10T14:35:43Z</time>
      </trkpt>
      <trkpt lat="48.52118" lon="7.17005">
        <ele>831.9813</ele>
        <time>2024-10-10T14:35:48Z</time>
      </trkpt>
      <trkpt lat="48.52113" lon="7.17008">
        <ele>831.9813</ele>
        <time>2024-10-10T14:35:52Z</time>
      </trkpt>
      <trkpt lat="48.52109" lon="7.17012">
        <ele>831.9813</ele>
        <time>2024-10-10T14:35:56Z</time>
      </trkpt>
      <trkpt lat="48.52105" lon="7.17016">
        <ele>831.9813</ele>
        <time>2024-10-10T14:36:02Z</time>
      </trkpt>
      <trkpt lat="48.521" lon="7.17019">
        <ele>831.9813</ele>
        <time>2024-10-10T14:36:07Z</time>
      </trkpt>
      <trkpt lat="48.52095" lon="7.17021">
        <ele>831.9813</ele>
        <time>2024-10-10T14:36:13Z</time>
      </trkpt>
      <trkpt lat="48.52091" lon="7.17026">
        <ele>831.9813</ele>
        <time>2024-10-10T14:36:20Z</time>
      </trkpt>
      <trkpt lat="48.52086" lon="7.1703">
        <ele>831.9813</ele>
        <time>2024-10-10T14:36:25Z</time>
      </trkpt>
      <trkpt lat="48.52081" lon="7.17033">
        <ele>831.9813</ele>
        <time>2024-10-10T14:36:30Z</time>
      </trkpt>
      <trkpt lat="48.52076" lon="7.17037">
        <ele>831.9813</ele>
        <time>2024-10-10T14:36:35Z</time>
      </trkpt>
      <trkpt lat="48.52071" lon="7.1704">
        <ele>831.9813</ele>
        <time>2024-10-10T14:36:40Z</time>
      </trkpt>
      <trkpt lat="48.52066" lon="7.17043">
        <ele>831.9813</ele>
        <time>2024-10-10T14:36:44Z</time>
      </trkpt>
      <trkpt lat="48.52061" lon="7.17047">
        <ele>831.9813</ele>
        <time>2024-10-10T14:36:50Z</time>
      </trkpt>
      <trkpt lat="48.52055" lon="7.17051">
        <ele>831.9813</ele>
        <time>2024-10-10T14:36:55Z</time>
      </trkpt>
      <trkpt lat="48.5205" lon="7.17054">
        <ele>831.9813</ele>
        <time>2024-10-10T14:36:59Z</time>
      </trkpt>
      <trkpt lat="48.52046" lon="7.17057">
        <ele>831.9813</ele>
        <time>2024-10-10T14:37:03Z</time>
      </trkpt>
      <trkpt lat="48.52041" lon="7.1706">
        <ele>831.9813</ele>
        <time>2024-10-10T14:37:08Z</time>
      </trkpt>
      <trkpt lat="48.52036" lon="7.17064">
        <ele>831.9813</ele>
        <time>2024-10-10T14:37:13Z</time>
      </trkpt>
      <trkpt lat="48.52032" lon="7.17067">
        <ele>831.9813</ele>
        <time>2024-10-10T14:37:17Z</time>
      </trkpt>
      <trkpt lat="48.52028" lon="7.1707">
        <ele>831.9813</ele>
        <time>2024-10-10T14:37:20Z</time>
      </trkpt>
      <trkpt lat="48.52023" lon="7.17073">
        <ele>831.9813</ele>
        <time>2024-10-10T14:37:25Z</time>
      </trkpt>
      <trkpt lat="48.52018" lon="7.17077">
        <ele>831.9813</ele>
        <time>2024-10-10T14:37:30Z</time>
      </trkpt>
      <trkpt lat="48.52013" lon="7.17081">
        <ele>831.9813</ele>
        <time>2024-10-10T14:37:35Z</time>
      </trkpt>
      <trkpt lat="48.52008" lon="7.17084">
        <ele>831.9813</ele>
        <time>2024-10-10T14:37:40Z</time>
      </trkpt>
      <trkpt lat="48.52004" lon="7.17087">
        <ele>831.9813</ele>
        <time>2024-10-10T14:37:45Z</time>
      </trkpt>
      <trkpt lat="48.51999" lon="7.17089">
        <ele>831.9813</ele>
        <time>2024-10-10T14:37:50Z</time>
      </trkpt>
      <trkpt lat="48.51994" lon="7.17091">
        <ele>831.9813</ele>
        <time>2024-10-10T14:37:56Z</time>
      </trkpt>
      <trkpt lat="48.51989" lon="7.17094">
        <ele>831.9813</ele>
        <time>2024-10-10T14:38:01Z</time>
      </trkpt>
      <trkpt lat="48.51984" lon="7.17097">
        <ele>831.9813</ele>
        <time>2024-10-10T14:38:06Z</time>
      </trkpt>
      <trkpt lat="48.5198" lon="7.17099">
        <ele>831.9813</ele>
        <time>2024-10-10T14:38:12Z</time>
      </trkpt>
      <trkpt lat="48.51975" lon="7.17101">
        <ele>831.9813</ele>
        <time>2024-10-10T14:38:16Z</time>
      </trkpt>
      <trkpt lat="48.51971" lon="7.17103">
        <ele>831.9813</ele>
        <time>2024-10-10T14:38:20Z</time>
      </trkpt>
      <trkpt lat="48.51967" lon="7.17105">
        <ele>831.9813</ele>
        <time>2024-10-10T14:38:25Z</time>
      </trkpt>
      <trkpt lat="48.51961" lon="7.17108">
        <ele>831.9813</ele>
        <time>2024-10-10T14:38:29Z</time>
      </trkpt>
      <trkpt lat="48.51956" lon="7.17111">
        <ele>831.9813</ele>
        <time>2024-10-10T14:38:34Z</time>
      </trkpt>
      <trkpt lat="48.51952" lon="7.17113">
        <ele>831.9813</ele>
        <time>2024-10-10T14:38:40Z</time>
      </trkpt>
      <trkpt lat="48.51946" lon="7.17116">
        <ele>843.3955</ele>
        <time>2024-10-10T14:38:45Z</time>
      </trkpt>
      <trkpt lat="48.51941" lon="7.17119">
        <ele>843.3955</ele>
        <time>2024-10-10T14:38:51Z</time>
      </trkpt>
      <trkpt lat="48.51936" lon="7.17122">
        <ele>843.3955</ele>
        <time>2024-10-10T14:38:55Z</time>
      </trkpt>
      <trkpt lat="48.5193" lon="7.17125">
        <ele>843.3955</ele>
        <time>2024-10-10T14:39:03Z</time>
      </trkpt>
      <trkpt lat="48.51925" lon="7.17127">
        <ele>843.3955</ele>
        <time>2024-10-10T14:39:09Z</time>
      </trkpt>
      <trkpt lat="48.51919" lon="7.17129">
        <ele>843.3955</ele>
        <time>2024-10-10T14:39:14Z</time>
      </trkpt>
      <trkpt lat="48.51912" lon="7.17129">
        <ele>843.3955</ele>
        <time>2024-10-10T14:39:20Z</time>
      </trkpt>
      <trkpt lat="48.51907" lon="7.17129">
        <ele>843.3955</ele>
        <time>2024-10-10T14:39:26Z</time>
      </trkpt>
      <trkpt lat="48.51902" lon="7.17129">
        <ele>843.3955</ele>
        <time>2024-10-10T14:39:30Z</time>
      </trkpt>
      <trkpt lat="48.51897" lon="7.17129">
        <ele>843.3955</ele>
        <time>2024-10-10T14:39:33Z</time>
      </trkpt>
      <trkpt lat="48.51891" lon="7.17129">
        <ele>843.3955</ele>
        <time>2024-10-10T14:39:38Z</time>
      </trkpt>
      <trkpt lat="48.51887" lon="7.17129">
        <ele>843.3955</ele>
        <time>2024-10-10T14:39:43Z</time>
      </trkpt>
      <trkpt lat="48.51881" lon="7.17129">
        <ele>843.3955</ele>
        <time>2024-10-10T14:39:48Z</time>
      </trkpt>
      <trkpt lat="48.51876" lon="7.17129">
        <ele>843.3955</ele>
        <time>2024-10-10T14:39:52Z</time>
      </trkpt>
      <trkpt lat="48.51871" lon="7.17128">
        <ele>843.3955</ele>
        <time>2024-10-10T14:39:57Z</time>
      </trkpt>
      <trkpt lat="48.51866" lon="7.1713">
        <ele>843.3955</ele>
        <time>2024-10-10T14:40:03Z</time>
      </trkpt>
      <trkpt lat="48.51861" lon="7.1713">
        <ele>843.3955</ele>
        <time>2024-10-10T14:40:07Z</time>
      </trkpt>
      <trkpt lat="48.51856" lon="7.17131">
        <ele>843.3955</ele>
        <time>2024-10-10T14:40:10Z</time>
      </trkpt>
      <trkpt lat="48.51851" lon="7.17131">
        <ele>843.3955</ele>
        <time>2024-10-10T14:40:14Z</time>
      </trkpt>
      <trkpt lat="48.51846" lon="7.17132">
        <ele>843.3955</ele>
        <time>2024-10-10T14:40:17Z</time>
      </trkpt>
      <trkpt lat="48.51841" lon="7.17133">
        <ele>843.3955</ele>
        <time>2024-10-10T14:40:21Z</time>
      </trkpt>
      <trkpt lat="48.51835" lon="7.17132">
        <ele>843.3955</ele>
        <time>2024-10-10T14:40:26Z</time>
      </trkpt>
      <trkpt lat="48.5183" lon="7.17133">
        <ele>843.3955</ele>
        <time>2024-10-10T14:40:30Z</time>
      </trkpt>
      <trkpt lat="48.51825" lon="7.17133">
        <ele>843.3955</ele>
        <time>2024-10-10T14:40:34Z</time>
      </trkpt>
      <trkpt lat="48.5182" lon="7.17134">
        <ele>843.3955</ele>
        <time>2024-10-10T14:41:36Z</time>
      </trkpt>
      <trkpt lat="48.51815" lon="7.17135">
        <ele>843.3955</ele>
        <time>2024-10-10T14:41:47Z</time>
      </trkpt>
      <trkpt lat="48.51819" lon="7.17131">
        <ele>843.3955</ele>
        <time>2024-10-10T14:42:32Z</time>
      </trkpt>
      <trkpt lat="48.51823" lon="7.17138">
        <ele>843.3955</ele>
        <time>2024-10-10T14:42:50Z</time>
      </trkpt>
      <trkpt lat="48.51817" lon="7.17132">
        <ele>843.3955</ele>
        <time>2024-10-10T14:43:05Z</time>
      </trkpt>
      <trkpt lat="48.51812" lon="7.17134">
        <ele>843.3955</ele>
        <time>2024-10-10T14:43:12Z</time>
      </trkpt>
      <trkpt lat="48.51808" lon="7.1714">
        <ele>843.3955</ele>
        <time>2024-10-10T14:43:17Z</time>
      </trkpt>
      <trkpt lat="48.51802" lon="7.17143">
        <ele>843.3955</ele>
        <time>2024-10-10T14:43:22Z</time>
      </trkpt>
      <trkpt lat="48.51798" lon="7.17138">
        <ele>843.3955</ele>
        <time>2024-10-10T14:43:26Z</time>
      </trkpt>
      <trkpt lat="48.51792" lon="7.17139">
        <ele>843.3955</ele>
        <time>2024-10-10T14:43:31Z</time>
      </trkpt>
      <trkpt lat="48.51787" lon="7.17138">
        <ele>843.3955</ele>
        <time>2024-10-10T14:43:37Z</time>
      </trkpt>
      <trkpt lat="48.51783" lon="7.17139">
        <ele>843.3955</ele>
        <time>2024-10-10T14:43:41Z</time>
      </trkpt>
      <trkpt lat="48.51776" lon="7.17138">
        <ele>843.3955</ele>
        <time>2024-10-10T14:43:47Z</time>
      </trkpt>
      <trkpt lat="48.51772" lon="7.17137">
        <ele>843.3955</ele>
        <time>2024-10-10T14:43:52Z</time>
      </trkpt>
      <trkpt lat="48.51767" lon="7.17136">
        <ele>843.3955</ele>
        <time>2024-10-10T14:43:57Z</time>
      </trkpt>
      <trkpt lat="48.51762" lon="7.17137">
        <ele>843.3955</ele>
        <time>2024-10-10T14:44:01Z</time>
      </trkpt>
      <trkpt lat="48.51756" lon="7.17136">
        <ele>843.3955</ele>
        <time>2024-10-10T14:44:07Z</time>
      </trkpt>
      <trkpt lat="48.51752" lon="7.17133">
        <ele>843.3955</ele>
        <time>2024-10-10T14:44:13Z</time>
      </trkpt>
      <trkpt lat="48.51747" lon="7.17133">
        <ele>843.3955</ele>
        <time>2024-10-10T14:44:18Z</time>
      </trkpt>
      <trkpt lat="48.5174" lon="7.17131">
        <ele>843.3955</ele>
        <time>2024-10-10T14:44:22Z</time>
      </trkpt>
      <trkpt lat="48.51735" lon="7.17129">
        <ele>843.3955</ele>
        <time>2024-10-10T14:44:26Z</time>
      </trkpt>
      <trkpt lat="48.5173" lon="7.17127">
        <ele>843.3955</ele>
        <time>2024-10-10T14:44:31Z</time>
      </trkpt>
      <trkpt lat="48.51724" lon="7.17124">
        <ele>843.3955</ele>
        <time>2024-10-10T14:44:36Z</time>
      </trkpt>
      <trkpt lat="48.5172" lon="7.17121">
        <ele>843.3955</ele>
        <time>2024-10-10T14:44:40Z</time>
      </trkpt>
      <trkpt lat="48.51716" lon="7.17118">
        <ele>843.3955</ele>
        <time>2024-10-10T14:44:45Z</time>
      </trkpt>
      <trkpt lat="48.51711" lon="7.17114">
        <ele>843.3955</ele>
        <time>2024-10-10T14:44:51Z</time>
      </trkpt>
      <trkpt lat="48.51707" lon="7.1711">
        <ele>843.3955</ele>
        <time>2024-10-10T14:44:56Z</time>
      </trkpt>
      <trkpt lat="48.51703" lon="7.17105">
        <ele>843.3955</ele>
        <time>2024-10-10T14:45:00Z</time>
      </trkpt>
      <trkpt lat="48.51698" lon="7.17101">
        <ele>843.3955</ele>
        <time>2024-10-10T14:45:04Z</time>
      </trkpt>
      <trkpt lat="48.51694" lon="7.17096">
        <ele>833.30414</ele>
        <time>2024-10-10T14:45:10Z</time>
      </trkpt>
      <trkpt lat="48.5169" lon="7.17092">
        <ele>833.30414</ele>
        <time>2024-10-10T14:45:13Z</time>
      </trkpt>
      <trkpt lat="48.51687" lon="7.17088">
        <ele>833.30414</ele>
        <time>2024-10-10T14:45:17Z</time>
      </trkpt>
      <trkpt lat="48.51682" lon="7.17084">
        <ele>833.30414</ele>
        <time>2024-10-10T14:45:21Z</time>
      </trkpt>
      <trkpt lat="48.51678" lon="7.17079">
        <ele>833.30414</ele>
        <time>2024-10-10T14:45:26Z</time>
      </trkpt>
      <trkpt lat="48.51674" lon="7.17075">
        <ele>833.30414</ele>
        <time>2024-10-10T14:45:31Z</time>
      </trkpt>
      <trkpt lat="48.51669" lon="7.17071">
        <ele>833.30414</ele>
        <time>2024-10-10T14:45:34Z</time>
      </trkpt>
      <trkpt lat="48.51665" lon="7.17068">
        <ele>833.30414</ele>
        <time>2024-10-10T14:45:38Z</time>
      </trkpt>
      <trkpt lat="48.5166" lon="7.17065">
        <ele>833.30414</ele>
        <time>2024-10-10T14:45:44Z</time>
      </trkpt>
      <trkpt lat="48.51654" lon="7.17061">
        <ele>833.30414</ele>
        <time>2024-10-10T14:45:51Z</time>
      </trkpt>
      <trkpt lat="48.5165" lon="7.17058">
        <ele>833.30414</ele>
        <time>2024-10-10T14:45:54Z</time>
      </trkpt>
      <trkpt lat="48.51646" lon="7.17056">
        <ele>833.30414</ele>
        <time>2024-10-10T14:45:58Z</time>
      </trkpt>
      <trkpt lat="48.51642" lon="7.17053">
        <ele>833.30414</ele>
        <time>2024-10-10T14:46:03Z</time>
      </trkpt>
      <trkpt lat="48.51637" lon="7.1705">
        <ele>833.30414</ele>
        <time>2024-10-10T14:46:07Z</time>
      </trkpt>
      <trkpt lat="48.51632" lon="7.17048">
        <ele>833.30414</ele>
        <time>2024-10-10T14:46:11Z</time>
      </trkpt>
      <trkpt lat="48.51627" lon="7.17046">
        <ele>833.30414</ele>
        <time>2024-10-10T14:46:14Z</time>
      </trkpt>
      <trkpt lat="48.51622" lon="7.17044">
        <ele>833.30414</ele>
        <time>2024-10-10T14:46:19Z</time>
      </trkpt>
      <trkpt lat="48.51618" lon="7.17042">
        <ele>833.30414</ele>
        <time>2024-10-10T14:46:26Z</time>
      </trkpt>
      <trkpt lat="48.51613" lon="7.17039">
        <ele>833.30414</ele>
        <time>2024-10-10T14:46:31Z</time>
      </trkpt>
      <trkpt lat="48.51608" lon="7.17037">
        <ele>833.30414</ele>
        <time>2024-10-10T14:46:37Z</time>
      </trkpt>
      <trkpt lat="48.51603" lon="7.17035">
        <ele>833.30414</ele>
        <time>2024-10-10T14:46:47Z</time>
      </trkpt>
      <trkpt lat="48.51598" lon="7.17033">
        <ele>833.30414</ele>
        <time>2024-10-10T14:46:54Z</time>
      </trkpt>
      <trkpt lat="48.51593" lon="7.17031">
        <ele>833.30414</ele>
        <time>2024-10-10T14:46:59Z</time>
      </trkpt>
      <trkpt lat="48.51588" lon="7.17029">
        <ele>833.30414</ele>
        <time>2024-10-10T14:47:05Z</time>
      </trkpt>
      <trkpt lat="48.51587" lon="7.17022">
        <ele>833.30414</ele>
        <time>2024-10-10T14:47:14Z</time>
      </trkpt>
    </trkseg>
  </trk>
</gpx>